<?xml version="1.0" encoding="UTF-8" standalone="no" ?>
<gpx xmlns="http://www.topografix.com/GPX/1/1" xmlns:xsi="http://www.w3.org/2001/XMLSchema-instance" xsi:schemaLocation="http://www.topografix.com/GPX/1/1 http://www.topografix.com/GPX/1/1/gpx.xsd" version="1.1" creator="VisuGPX - https://www.visugpx.com">
  <metadata>
    <name>Trail de Saint-Héand - 10 km</name>
    <desc><![CDATA[Parcours du Trail de Saint-Héand 2017 pour le 10 km]]></desc>
  </metadata>
  <trk>
    <name><![CDATA[Move]]></name>
    <trkseg>
      <trkpt lat="45.52912" lon="4.37327">
        <ele>687</ele>
        <time>2017-11-12T08:30:38.007Z</time>
      </trkpt>
      <trkpt lat="45.52903" lon="4.37326">
        <ele>687</ele>
        <time>2017-11-12T08:30:40.007Z</time>
      </trkpt>
      <trkpt lat="45.52895" lon="4.37338">
        <ele>687</ele>
        <time>2017-11-12T08:30:44.007Z</time>
      </trkpt>
      <trkpt lat="45.52891" lon="4.37348">
        <ele>687</ele>
        <time>2017-11-12T08:30:46.007Z</time>
      </trkpt>
      <trkpt lat="45.52889" lon="4.37362">
        <ele>687</ele>
        <time>2017-11-12T08:30:49.007Z</time>
      </trkpt>
      <trkpt lat="45.52893" lon="4.37379">
        <ele>689</ele>
        <time>2017-11-12T08:30:53.007Z</time>
      </trkpt>
      <trkpt lat="45.52899" lon="4.37393">
        <ele>689</ele>
        <time>2017-11-12T08:30:56.007Z</time>
      </trkpt>
      <trkpt lat="45.52908" lon="4.37406">
        <ele>689</ele>
        <time>2017-11-12T08:30:59.007Z</time>
      </trkpt>
      <trkpt lat="45.52919" lon="4.37416">
        <ele>692</ele>
        <time>2017-11-12T08:31:02.007Z</time>
      </trkpt>
      <trkpt lat="45.52932" lon="4.37424">
        <ele>692</ele>
        <time>2017-11-12T08:31:05.007Z</time>
      </trkpt>
      <trkpt lat="45.52944" lon="4.37429">
        <ele>693</ele>
        <time>2017-11-12T08:31:08.007Z</time>
      </trkpt>
      <trkpt lat="45.52956" lon="4.37431">
        <ele>693</ele>
        <time>2017-11-12T08:31:11.007Z</time>
      </trkpt>
      <trkpt lat="45.52967" lon="4.37438">
        <ele>693</ele>
        <time>2017-11-12T08:31:14.007Z</time>
      </trkpt>
      <trkpt lat="45.52977" lon="4.37446">
        <ele>693</ele>
        <time>2017-11-12T08:31:17.007Z</time>
      </trkpt>
      <trkpt lat="45.52989" lon="4.37456">
        <ele>693</ele>
        <time>2017-11-12T08:31:20.007Z</time>
      </trkpt>
      <trkpt lat="45.52999" lon="4.37464">
        <ele>695</ele>
        <time>2017-11-12T08:31:23.007Z</time>
      </trkpt>
      <trkpt lat="45.53008" lon="4.37469">
        <ele>695</ele>
        <time>2017-11-12T08:31:26.007Z</time>
      </trkpt>
      <trkpt lat="45.53021" lon="4.37475">
        <ele>695</ele>
        <time>2017-11-12T08:31:30.007Z</time>
      </trkpt>
      <trkpt lat="45.53031" lon="4.37479">
        <ele>697</ele>
        <time>2017-11-12T08:31:33.007Z</time>
      </trkpt>
      <trkpt lat="45.53043" lon="4.37482">
        <ele>697</ele>
        <time>2017-11-12T08:31:36.007Z</time>
      </trkpt>
      <trkpt lat="45.53051" lon="4.37488">
        <ele>697</ele>
        <time>2017-11-12T08:31:38.007Z</time>
      </trkpt>
      <trkpt lat="45.53058" lon="4.37496">
        <ele>697</ele>
        <time>2017-11-12T08:31:40.007Z</time>
      </trkpt>
      <trkpt lat="45.53059" lon="4.37509">
        <ele>700</ele>
        <time>2017-11-12T08:31:43.007Z</time>
      </trkpt>
      <trkpt lat="45.53052" lon="4.37522">
        <ele>700.5769984</ele>
        <time>2017-11-12T08:31:46.007Z</time>
      </trkpt>
      <trkpt lat="45.53046" lon="4.37534">
        <ele>701</ele>
        <time>2017-11-12T08:31:49.007Z</time>
      </trkpt>
      <trkpt lat="45.53039" lon="4.37546">
        <ele>702</ele>
        <time>2017-11-12T08:31:52.007Z</time>
      </trkpt>
      <trkpt lat="45.53034" lon="4.37557">
        <ele>702</ele>
        <time>2017-11-12T08:31:55.007Z</time>
      </trkpt>
      <trkpt lat="45.5303" lon="4.37571">
        <ele>702</ele>
        <time>2017-11-12T08:31:59.007Z</time>
      </trkpt>
      <trkpt lat="45.5303" lon="4.37588">
        <ele>707</ele>
        <time>2017-11-12T08:32:03.007Z</time>
      </trkpt>
      <trkpt lat="45.5303" lon="4.37602">
        <ele>707.5769984</ele>
        <time>2017-11-12T08:32:06.007Z</time>
      </trkpt>
      <trkpt lat="45.5303" lon="4.37616">
        <ele>708</ele>
        <time>2017-11-12T08:32:09.007Z</time>
      </trkpt>
      <trkpt lat="45.5303" lon="4.37626">
        <ele>708.5769984</ele>
        <time>2017-11-12T08:32:11.007Z</time>
      </trkpt>
      <trkpt lat="45.53029" lon="4.37636">
        <ele>709</ele>
        <time>2017-11-12T08:32:13.007Z</time>
      </trkpt>
      <trkpt lat="45.53027" lon="4.37646">
        <ele>709</ele>
        <time>2017-11-12T08:32:15.007Z</time>
      </trkpt>
      <trkpt lat="45.53026" lon="4.37656">
        <ele>711</ele>
        <time>2017-11-12T08:32:17.007Z</time>
      </trkpt>
      <trkpt lat="45.53024" lon="4.37664">
        <ele>711</ele>
        <time>2017-11-12T08:32:19.007Z</time>
      </trkpt>
      <trkpt lat="45.53023" lon="4.37672">
        <ele>712.14257470915</ele>
        <time>2017-11-12T08:32:21.007Z</time>
      </trkpt>
      <trkpt lat="45.53021" lon="4.37684">
        <ele>713</ele>
        <time>2017-11-12T08:32:24.007Z</time>
      </trkpt>
      <trkpt lat="45.53019" lon="4.37696">
        <ele>716</ele>
        <time>2017-11-12T08:32:27.007Z</time>
      </trkpt>
      <trkpt lat="45.53017" lon="4.37707">
        <ele>716</ele>
        <time>2017-11-12T08:32:30.007Z</time>
      </trkpt>
      <trkpt lat="45.53014" lon="4.37719">
        <ele>717</ele>
        <time>2017-11-12T08:32:33.007Z</time>
      </trkpt>
      <trkpt lat="45.53012" lon="4.37729">
        <ele>718.1539968</ele>
        <time>2017-11-12T08:32:36.007Z</time>
      </trkpt>
      <trkpt lat="45.53011" lon="4.37739">
        <ele>719</ele>
        <time>2017-11-12T08:32:39.007Z</time>
      </trkpt>
      <trkpt lat="45.53011" lon="4.37749">
        <ele>721</ele>
        <time>2017-11-12T08:32:42.007Z</time>
      </trkpt>
      <trkpt lat="45.53012" lon="4.37759">
        <ele>721</ele>
        <time>2017-11-12T08:32:45.007Z</time>
      </trkpt>
      <trkpt lat="45.53012" lon="4.3777">
        <ele>723</ele>
        <time>2017-11-12T08:32:48.007Z</time>
      </trkpt>
      <trkpt lat="45.53016" lon="4.37778">
        <ele>723</ele>
        <time>2017-11-12T08:32:52.007Z</time>
      </trkpt>
      <trkpt lat="45.53022" lon="4.3778">
        <ele>723</ele>
        <time>2017-11-12T08:32:54.007Z</time>
      </trkpt>
      <trkpt lat="45.53029" lon="4.37783">
        <ele>723</ele>
        <time>2017-11-12T08:32:56.007Z</time>
      </trkpt>
      <trkpt lat="45.53038" lon="4.37784">
        <ele>723</ele>
        <time>2017-11-12T08:32:58.007Z</time>
      </trkpt>
      <trkpt lat="45.53045" lon="4.37786">
        <ele>723</ele>
        <time>2017-11-12T08:33:00.007Z</time>
      </trkpt>
      <trkpt lat="45.53052" lon="4.37784">
        <ele>719</ele>
        <time>2017-11-12T08:33:02.007Z</time>
      </trkpt>
      <trkpt lat="45.53059" lon="4.37777">
        <ele>719</ele>
        <time>2017-11-12T08:33:04.007Z</time>
      </trkpt>
      <trkpt lat="45.53067" lon="4.37771">
        <ele>718.4230016</ele>
        <time>2017-11-12T08:33:06.007Z</time>
      </trkpt>
      <trkpt lat="45.53074" lon="4.37767">
        <ele>718</ele>
        <time>2017-11-12T08:33:08.007Z</time>
      </trkpt>
      <trkpt lat="45.53083" lon="4.37763">
        <ele>718</ele>
        <time>2017-11-12T08:33:10.007Z</time>
      </trkpt>
      <trkpt lat="45.53092" lon="4.3776">
        <ele>715</ele>
        <time>2017-11-12T08:33:12.007Z</time>
      </trkpt>
      <trkpt lat="45.53101" lon="4.37762">
        <ele>715</ele>
        <time>2017-11-12T08:33:14.007Z</time>
      </trkpt>
      <trkpt lat="45.53111" lon="4.37766">
        <ele>713.28181888705</ele>
        <time>2017-11-12T08:33:16.007Z</time>
      </trkpt>
      <trkpt lat="45.5312" lon="4.37772">
        <ele>712</ele>
        <time>2017-11-12T08:33:18.007Z</time>
      </trkpt>
      <trkpt lat="45.53128" lon="4.37778">
        <ele>712</ele>
        <time>2017-11-12T08:33:20.007Z</time>
      </trkpt>
      <trkpt lat="45.53136" lon="4.37785">
        <ele>711</ele>
        <time>2017-11-12T08:33:22.007Z</time>
      </trkpt>
      <trkpt lat="45.53144" lon="4.3779">
        <ele>711</ele>
        <time>2017-11-12T08:33:24.007Z</time>
      </trkpt>
      <trkpt lat="45.53151" lon="4.37794">
        <ele>710.4316314669</ele>
        <time>2017-11-12T08:33:26.007Z</time>
      </trkpt>
      <trkpt lat="45.53159" lon="4.37795">
        <ele>710</ele>
        <time>2017-11-12T08:33:28.007Z</time>
      </trkpt>
      <trkpt lat="45.53167" lon="4.37798">
        <ele>710</ele>
        <time>2017-11-12T08:33:30.007Z</time>
      </trkpt>
      <trkpt lat="45.53174" lon="4.37802">
        <ele>710</ele>
        <time>2017-11-12T08:33:32.007Z</time>
      </trkpt>
      <trkpt lat="45.53179" lon="4.37815">
        <ele>710</ele>
        <time>2017-11-12T08:33:35.007Z</time>
      </trkpt>
      <trkpt lat="45.53179" lon="4.37826">
        <ele>710</ele>
        <time>2017-11-12T08:33:37.007Z</time>
      </trkpt>
      <trkpt lat="45.53174" lon="4.37837">
        <ele>710</ele>
        <time>2017-11-12T08:33:39.007Z</time>
      </trkpt>
      <trkpt lat="45.53169" lon="4.37846">
        <ele>710</ele>
        <time>2017-11-12T08:33:41.007Z</time>
      </trkpt>
      <trkpt lat="45.53165" lon="4.37855">
        <ele>710</ele>
        <time>2017-11-12T08:33:43.007Z</time>
      </trkpt>
      <trkpt lat="45.53161" lon="4.37862">
        <ele>710</ele>
        <time>2017-11-12T08:33:45.007Z</time>
      </trkpt>
      <trkpt lat="45.53157" lon="4.37873">
        <ele>710</ele>
        <time>2017-11-12T08:33:48.007Z</time>
      </trkpt>
      <trkpt lat="45.53156" lon="4.37887">
        <ele>708.28613793628</ele>
        <time>2017-11-12T08:33:51.007Z</time>
      </trkpt>
      <trkpt lat="45.53157" lon="4.37903">
        <ele>707</ele>
        <time>2017-11-12T08:33:54.007Z</time>
      </trkpt>
      <trkpt lat="45.53162" lon="4.37919">
        <ele>703</ele>
        <time>2017-11-12T08:33:57.007Z</time>
      </trkpt>
      <trkpt lat="45.53169" lon="4.37934">
        <ele>703</ele>
        <time>2017-11-12T08:34:00.007Z</time>
      </trkpt>
      <trkpt lat="45.53176" lon="4.37948">
        <ele>700</ele>
        <time>2017-11-12T08:34:03.007Z</time>
      </trkpt>
      <trkpt lat="45.53183" lon="4.37959">
        <ele>698.5769984</ele>
        <time>2017-11-12T08:34:05.007Z</time>
      </trkpt>
      <trkpt lat="45.53189" lon="4.37967">
        <ele>698</ele>
        <time>2017-11-12T08:34:07.007Z</time>
      </trkpt>
      <trkpt lat="45.53195" lon="4.37975">
        <ele>698</ele>
        <time>2017-11-12T08:34:09.007Z</time>
      </trkpt>
      <trkpt lat="45.53204" lon="4.37989">
        <ele>696</ele>
        <time>2017-11-12T08:34:12.007Z</time>
      </trkpt>
      <trkpt lat="45.53211" lon="4.37998">
        <ele>696</ele>
        <time>2017-11-12T08:34:14.007Z</time>
      </trkpt>
      <trkpt lat="45.53216" lon="4.38008">
        <ele>694.8545459247</ele>
        <time>2017-11-12T08:34:16.007Z</time>
      </trkpt>
      <trkpt lat="45.53221" lon="4.38018">
        <ele>694</ele>
        <time>2017-11-12T08:34:18.007Z</time>
      </trkpt>
      <trkpt lat="45.53224" lon="4.38029">
        <ele>694</ele>
        <time>2017-11-12T08:34:20.007Z</time>
      </trkpt>
      <trkpt lat="45.53226" lon="4.3804">
        <ele>692</ele>
        <time>2017-11-12T08:34:22.007Z</time>
      </trkpt>
      <trkpt lat="45.53228" lon="4.38052">
        <ele>692</ele>
        <time>2017-11-12T08:34:24.007Z</time>
      </trkpt>
      <trkpt lat="45.53226" lon="4.38068">
        <ele>689</ele>
        <time>2017-11-12T08:34:27.007Z</time>
      </trkpt>
      <trkpt lat="45.53224" lon="4.38083">
        <ele>689</ele>
        <time>2017-11-12T08:34:30.007Z</time>
      </trkpt>
      <trkpt lat="45.53224" lon="4.38096">
        <ele>688</ele>
        <time>2017-11-12T08:34:33.007Z</time>
      </trkpt>
      <trkpt lat="45.53226" lon="4.38109">
        <ele>686.2690048</ele>
        <time>2017-11-12T08:34:36.007Z</time>
      </trkpt>
      <trkpt lat="45.53228" lon="4.38123">
        <ele>685</ele>
        <time>2017-11-12T08:34:39.007Z</time>
      </trkpt>
      <trkpt lat="45.5323" lon="4.38141">
        <ele>683</ele>
        <time>2017-11-12T08:34:42.007Z</time>
      </trkpt>
      <trkpt lat="45.53231" lon="4.38157">
        <ele>683</ele>
        <time>2017-11-12T08:34:45.007Z</time>
      </trkpt>
      <trkpt lat="45.5323" lon="4.38173">
        <ele>681</ele>
        <time>2017-11-12T08:34:48.007Z</time>
      </trkpt>
      <trkpt lat="45.5323" lon="4.3819">
        <ele>680.42871264543</ele>
        <time>2017-11-12T08:34:51.007Z</time>
      </trkpt>
      <trkpt lat="45.53233" lon="4.38209">
        <ele>680</ele>
        <time>2017-11-12T08:34:55.007Z</time>
      </trkpt>
      <trkpt lat="45.5324" lon="4.38222">
        <ele>679</ele>
        <time>2017-11-12T08:34:58.007Z</time>
      </trkpt>
      <trkpt lat="45.53251" lon="4.3823">
        <ele>680</ele>
        <time>2017-11-12T08:35:02.007Z</time>
      </trkpt>
      <trkpt lat="45.53262" lon="4.38235">
        <ele>680</ele>
        <time>2017-11-12T08:35:06.007Z</time>
      </trkpt>
      <trkpt lat="45.53271" lon="4.38245">
        <ele>680</ele>
        <time>2017-11-12T08:35:09.007Z</time>
      </trkpt>
      <trkpt lat="45.53278" lon="4.38257">
        <ele>681</ele>
        <time>2017-11-12T08:35:12.007Z</time>
      </trkpt>
      <trkpt lat="45.53281" lon="4.38269">
        <ele>681</ele>
        <time>2017-11-12T08:35:15.007Z</time>
      </trkpt>
      <trkpt lat="45.53281" lon="4.38281">
        <ele>681</ele>
        <time>2017-11-12T08:35:18.007Z</time>
      </trkpt>
      <trkpt lat="45.53281" lon="4.38295">
        <ele>682.71386206372</ele>
        <time>2017-11-12T08:35:21.007Z</time>
      </trkpt>
      <trkpt lat="45.53282" lon="4.38308">
        <ele>684</ele>
        <time>2017-11-12T08:35:24.007Z</time>
      </trkpt>
      <trkpt lat="45.53282" lon="4.38321">
        <ele>687</ele>
        <time>2017-11-12T08:35:27.007Z</time>
      </trkpt>
      <trkpt lat="45.53281" lon="4.38334">
        <ele>687</ele>
        <time>2017-11-12T08:35:30.007Z</time>
      </trkpt>
      <trkpt lat="45.53281" lon="4.38346">
        <ele>689</ele>
        <time>2017-11-12T08:35:33.007Z</time>
      </trkpt>
      <trkpt lat="45.53283" lon="4.38356">
        <ele>689.5769984</ele>
        <time>2017-11-12T08:35:36.007Z</time>
      </trkpt>
      <trkpt lat="45.53287" lon="4.38369">
        <ele>690</ele>
        <time>2017-11-12T08:35:40.007Z</time>
      </trkpt>
      <trkpt lat="45.53292" lon="4.38384">
        <ele>692</ele>
        <time>2017-11-12T08:35:45.007Z</time>
      </trkpt>
      <trkpt lat="45.53298" lon="4.38396">
        <ele>695</ele>
        <time>2017-11-12T08:35:50.007Z</time>
      </trkpt>
      <trkpt lat="45.53304" lon="4.38408">
        <ele>698.5769984</ele>
        <time>2017-11-12T08:35:54.007Z</time>
      </trkpt>
      <trkpt lat="45.5331" lon="4.38419">
        <ele>700</ele>
        <time>2017-11-12T08:35:58.007Z</time>
      </trkpt>
      <trkpt lat="45.53315" lon="4.38428">
        <ele>701</ele>
        <time>2017-11-12T08:36:01.007Z</time>
      </trkpt>
      <trkpt lat="45.53319" lon="4.38436">
        <ele>701</ele>
        <time>2017-11-12T08:36:04.007Z</time>
      </trkpt>
      <trkpt lat="45.53323" lon="4.38444">
        <ele>703</ele>
        <time>2017-11-12T08:36:07.007Z</time>
      </trkpt>
      <trkpt lat="45.53326" lon="4.38452">
        <ele>703</ele>
        <time>2017-11-12T08:36:10.007Z</time>
      </trkpt>
      <trkpt lat="45.5333" lon="4.38461">
        <ele>706</ele>
        <time>2017-11-12T08:36:13.007Z</time>
      </trkpt>
      <trkpt lat="45.53334" lon="4.38471">
        <ele>708</ele>
        <time>2017-11-12T08:36:17.007Z</time>
      </trkpt>
      <trkpt lat="45.53339" lon="4.38482">
        <ele>709.14257470915</ele>
        <time>2017-11-12T08:36:21.007Z</time>
      </trkpt>
      <trkpt lat="45.53343" lon="4.38492">
        <ele>710</ele>
        <time>2017-11-12T08:36:25.007Z</time>
      </trkpt>
      <trkpt lat="45.53346" lon="4.38506">
        <ele>712</ele>
        <time>2017-11-12T08:36:30.007Z</time>
      </trkpt>
      <trkpt lat="45.5335" lon="4.3852">
        <ele>714</ele>
        <time>2017-11-12T08:36:35.007Z</time>
      </trkpt>
      <trkpt lat="45.53354" lon="4.3853">
        <ele>715</ele>
        <time>2017-11-12T08:36:38.007Z</time>
      </trkpt>
      <trkpt lat="45.53358" lon="4.38542">
        <ele>716</ele>
        <time>2017-11-12T08:36:42.007Z</time>
      </trkpt>
      <trkpt lat="45.53361" lon="4.38554">
        <ele>718</ele>
        <time>2017-11-12T08:36:47.007Z</time>
      </trkpt>
      <trkpt lat="45.53365" lon="4.38566">
        <ele>719.14257470915</ele>
        <time>2017-11-12T08:36:51.007Z</time>
      </trkpt>
      <trkpt lat="45.53369" lon="4.38579">
        <ele>720.5769984</ele>
        <time>2017-11-12T08:36:56.007Z</time>
      </trkpt>
      <trkpt lat="45.53373" lon="4.38591">
        <ele>722.1539968</ele>
        <time>2017-11-12T08:37:01.007Z</time>
      </trkpt>
      <trkpt lat="45.53376" lon="4.38604">
        <ele>724.1539968</ele>
        <time>2017-11-12T08:37:06.007Z</time>
      </trkpt>
      <trkpt lat="45.53382" lon="4.38617">
        <ele>725</ele>
        <time>2017-11-12T08:37:10.007Z</time>
      </trkpt>
      <trkpt lat="45.53387" lon="4.38626">
        <ele>726</ele>
        <time>2017-11-12T08:37:13.007Z</time>
      </trkpt>
      <trkpt lat="45.53395" lon="4.38637">
        <ele>727</ele>
        <time>2017-11-12T08:37:17.007Z</time>
      </trkpt>
      <trkpt lat="45.53403" lon="4.38646">
        <ele>728.14257470915</ele>
        <time>2017-11-12T08:37:21.007Z</time>
      </trkpt>
      <trkpt lat="45.53412" lon="4.38654">
        <ele>729</ele>
        <time>2017-11-12T08:37:25.007Z</time>
      </trkpt>
      <trkpt lat="45.53419" lon="4.38662">
        <ele>730</ele>
        <time>2017-11-12T08:37:28.007Z</time>
      </trkpt>
      <trkpt lat="45.53426" lon="4.38671">
        <ele>730</ele>
        <time>2017-11-12T08:37:31.007Z</time>
      </trkpt>
      <trkpt lat="45.53434" lon="4.3868">
        <ele>730</ele>
        <time>2017-11-12T08:37:33.007Z</time>
      </trkpt>
      <trkpt lat="45.53441" lon="4.38689">
        <ele>730</ele>
        <time>2017-11-12T08:37:35.007Z</time>
      </trkpt>
      <trkpt lat="45.53447" lon="4.38702">
        <ele>730</ele>
        <time>2017-11-12T08:37:38.007Z</time>
      </trkpt>
      <trkpt lat="45.53451" lon="4.38714">
        <ele>730</ele>
        <time>2017-11-12T08:37:41.007Z</time>
      </trkpt>
      <trkpt lat="45.53457" lon="4.38726">
        <ele>730</ele>
        <time>2017-11-12T08:37:44.007Z</time>
      </trkpt>
      <trkpt lat="45.53464" lon="4.38735">
        <ele>730</ele>
        <time>2017-11-12T08:37:47.007Z</time>
      </trkpt>
      <trkpt lat="45.53472" lon="4.38744">
        <ele>729</ele>
        <time>2017-11-12T08:37:50.007Z</time>
      </trkpt>
      <trkpt lat="45.53482" lon="4.38754">
        <ele>729</ele>
        <time>2017-11-12T08:37:53.007Z</time>
      </trkpt>
      <trkpt lat="45.5349" lon="4.38763">
        <ele>729</ele>
        <time>2017-11-12T08:37:56.007Z</time>
      </trkpt>
      <trkpt lat="45.535" lon="4.38772">
        <ele>729</ele>
        <time>2017-11-12T08:37:59.007Z</time>
      </trkpt>
      <trkpt lat="45.53509" lon="4.3878">
        <ele>729</ele>
        <time>2017-11-12T08:38:02.007Z</time>
      </trkpt>
      <trkpt lat="45.53518" lon="4.38788">
        <ele>729</ele>
        <time>2017-11-12T08:38:05.007Z</time>
      </trkpt>
      <trkpt lat="45.53525" lon="4.38794">
        <ele>729</ele>
        <time>2017-11-12T08:38:07.007Z</time>
      </trkpt>
      <trkpt lat="45.53532" lon="4.38799">
        <ele>729</ele>
        <time>2017-11-12T08:38:09.007Z</time>
      </trkpt>
      <trkpt lat="45.5354" lon="4.38808">
        <ele>729</ele>
        <time>2017-11-12T08:38:12.007Z</time>
      </trkpt>
      <trkpt lat="45.53547" lon="4.38814">
        <ele>729</ele>
        <time>2017-11-12T08:38:14.007Z</time>
      </trkpt>
      <trkpt lat="45.53554" lon="4.3882">
        <ele>729</ele>
        <time>2017-11-12T08:38:16.007Z</time>
      </trkpt>
      <trkpt lat="45.53562" lon="4.38825">
        <ele>729</ele>
        <time>2017-11-12T08:38:18.007Z</time>
      </trkpt>
      <trkpt lat="45.53569" lon="4.38831">
        <ele>729</ele>
        <time>2017-11-12T08:38:20.007Z</time>
      </trkpt>
      <trkpt lat="45.53576" lon="4.38838">
        <ele>728</ele>
        <time>2017-11-12T08:38:22.007Z</time>
      </trkpt>
      <trkpt lat="45.53582" lon="4.38845">
        <ele>728</ele>
        <time>2017-11-12T08:38:24.007Z</time>
      </trkpt>
      <trkpt lat="45.5359" lon="4.38853">
        <ele>728</ele>
        <time>2017-11-12T08:38:26.007Z</time>
      </trkpt>
      <trkpt lat="45.53597" lon="4.3886">
        <ele>728</ele>
        <time>2017-11-12T08:38:28.007Z</time>
      </trkpt>
      <trkpt lat="45.53606" lon="4.38869">
        <ele>725.6920064</ele>
        <time>2017-11-12T08:38:31.007Z</time>
      </trkpt>
      <trkpt lat="45.53616" lon="4.38877">
        <ele>724</ele>
        <time>2017-11-12T08:38:34.007Z</time>
      </trkpt>
      <trkpt lat="45.53625" lon="4.38886">
        <ele>722</ele>
        <time>2017-11-12T08:38:37.007Z</time>
      </trkpt>
      <trkpt lat="45.53634" lon="4.38893">
        <ele>722</ele>
        <time>2017-11-12T08:38:40.007Z</time>
      </trkpt>
      <trkpt lat="45.53644" lon="4.38902">
        <ele>721</ele>
        <time>2017-11-12T08:38:43.007Z</time>
      </trkpt>
      <trkpt lat="45.53652" lon="4.38912">
        <ele>719.8659968</ele>
        <time>2017-11-12T08:38:46.007Z</time>
      </trkpt>
      <trkpt lat="45.5366" lon="4.38925">
        <ele>719</ele>
        <time>2017-11-12T08:38:49.007Z</time>
      </trkpt>
      <trkpt lat="45.53666" lon="4.3894">
        <ele>719</ele>
        <time>2017-11-12T08:38:52.007Z</time>
      </trkpt>
      <trkpt lat="45.53671" lon="4.38956">
        <ele>719</ele>
        <time>2017-11-12T08:38:55.007Z</time>
      </trkpt>
      <trkpt lat="45.53674" lon="4.38971">
        <ele>719</ele>
        <time>2017-11-12T08:38:58.007Z</time>
      </trkpt>
      <trkpt lat="45.53677" lon="4.38989">
        <ele>719</ele>
        <time>2017-11-12T08:39:02.007Z</time>
      </trkpt>
      <trkpt lat="45.53681" lon="4.39005">
        <ele>719</ele>
        <time>2017-11-12T08:39:06.007Z</time>
      </trkpt>
      <trkpt lat="45.53684" lon="4.3902">
        <ele>719</ele>
        <time>2017-11-12T08:39:10.007Z</time>
      </trkpt>
      <trkpt lat="45.53688" lon="4.39033">
        <ele>719</ele>
        <time>2017-11-12T08:39:14.007Z</time>
      </trkpt>
      <trkpt lat="45.53695" lon="4.39048">
        <ele>719</ele>
        <time>2017-11-12T08:39:18.007Z</time>
      </trkpt>
      <trkpt lat="45.537" lon="4.39063">
        <ele>719</ele>
        <time>2017-11-12T08:39:22.007Z</time>
      </trkpt>
      <trkpt lat="45.53704" lon="4.39079">
        <ele>719</ele>
        <time>2017-11-12T08:39:27.007Z</time>
      </trkpt>
      <trkpt lat="45.53711" lon="4.39095">
        <ele>720.1539968</ele>
        <time>2017-11-12T08:39:31.007Z</time>
      </trkpt>
      <trkpt lat="45.53716" lon="4.39112">
        <ele>721</ele>
        <time>2017-11-12T08:39:35.007Z</time>
      </trkpt>
      <trkpt lat="45.53722" lon="4.39127">
        <ele>721</ele>
        <time>2017-11-12T08:39:38.007Z</time>
      </trkpt>
      <trkpt lat="45.53728" lon="4.39139">
        <ele>722.1539968</ele>
        <time>2017-11-12T08:39:41.007Z</time>
      </trkpt>
      <trkpt lat="45.53735" lon="4.39153">
        <ele>723</ele>
        <time>2017-11-12T08:39:44.007Z</time>
      </trkpt>
      <trkpt lat="45.53743" lon="4.39167">
        <ele>723</ele>
        <time>2017-11-12T08:39:47.007Z</time>
      </trkpt>
      <trkpt lat="45.53751" lon="4.39179">
        <ele>723</ele>
        <time>2017-11-12T08:39:50.007Z</time>
      </trkpt>
      <trkpt lat="45.53759" lon="4.39188">
        <ele>725</ele>
        <time>2017-11-12T08:39:53.007Z</time>
      </trkpt>
      <trkpt lat="45.53768" lon="4.39202">
        <ele>725</ele>
        <time>2017-11-12T08:39:57.007Z</time>
      </trkpt>
      <trkpt lat="45.53776" lon="4.39213">
        <ele>725</ele>
        <time>2017-11-12T08:40:00.007Z</time>
      </trkpt>
      <trkpt lat="45.53784" lon="4.39223">
        <ele>728</ele>
        <time>2017-11-12T08:40:03.007Z</time>
      </trkpt>
      <trkpt lat="45.53791" lon="4.39232">
        <ele>728</ele>
        <time>2017-11-12T08:40:06.007Z</time>
      </trkpt>
      <trkpt lat="45.53798" lon="4.39241">
        <ele>728</ele>
        <time>2017-11-12T08:40:09.007Z</time>
      </trkpt>
      <trkpt lat="45.53805" lon="4.39249">
        <ele>730</ele>
        <time>2017-11-12T08:40:12.007Z</time>
      </trkpt>
      <trkpt lat="45.53812" lon="4.39259">
        <ele>730</ele>
        <time>2017-11-12T08:40:15.007Z</time>
      </trkpt>
      <trkpt lat="45.53819" lon="4.39268">
        <ele>730</ele>
        <time>2017-11-12T08:40:18.007Z</time>
      </trkpt>
      <trkpt lat="45.53825" lon="4.39277">
        <ele>731.14257470915</ele>
        <time>2017-11-12T08:40:21.007Z</time>
      </trkpt>
      <trkpt lat="45.53831" lon="4.39285">
        <ele>732</ele>
        <time>2017-11-12T08:40:24.007Z</time>
      </trkpt>
      <trkpt lat="45.53836" lon="4.39295">
        <ele>732</ele>
        <time>2017-11-12T08:40:27.007Z</time>
      </trkpt>
      <trkpt lat="45.53842" lon="4.39305">
        <ele>732</ele>
        <time>2017-11-12T08:40:30.007Z</time>
      </trkpt>
      <trkpt lat="45.53847" lon="4.39315">
        <ele>734</ele>
        <time>2017-11-12T08:40:33.007Z</time>
      </trkpt>
      <trkpt lat="45.53853" lon="4.39324">
        <ele>734.5769984</ele>
        <time>2017-11-12T08:40:36.007Z</time>
      </trkpt>
      <trkpt lat="45.53857" lon="4.39335">
        <ele>735</ele>
        <time>2017-11-12T08:40:39.007Z</time>
      </trkpt>
      <trkpt lat="45.53862" lon="4.39346">
        <ele>737</ele>
        <time>2017-11-12T08:40:42.007Z</time>
      </trkpt>
      <trkpt lat="45.53867" lon="4.39359">
        <ele>737</ele>
        <time>2017-11-12T08:40:45.007Z</time>
      </trkpt>
      <trkpt lat="45.53872" lon="4.39369">
        <ele>739</ele>
        <time>2017-11-12T08:40:48.007Z</time>
      </trkpt>
      <trkpt lat="45.53876" lon="4.3938">
        <ele>739.57128735457</ele>
        <time>2017-11-12T08:40:51.007Z</time>
      </trkpt>
      <trkpt lat="45.5388" lon="4.3939">
        <ele>740</ele>
        <time>2017-11-12T08:40:54.007Z</time>
      </trkpt>
      <trkpt lat="45.53884" lon="4.394">
        <ele>741</ele>
        <time>2017-11-12T08:40:57.007Z</time>
      </trkpt>
      <trkpt lat="45.53889" lon="4.3941">
        <ele>741</ele>
        <time>2017-11-12T08:41:00.007Z</time>
      </trkpt>
      <trkpt lat="45.53892" lon="4.39423">
        <ele>743</ele>
        <time>2017-11-12T08:41:04.007Z</time>
      </trkpt>
      <trkpt lat="45.53896" lon="4.39436">
        <ele>744</ele>
        <time>2017-11-12T08:41:08.007Z</time>
      </trkpt>
      <trkpt lat="45.539" lon="4.39446">
        <ele>745.1539968</ele>
        <time>2017-11-12T08:41:11.007Z</time>
      </trkpt>
      <trkpt lat="45.53904" lon="4.39457">
        <ele>746</ele>
        <time>2017-11-12T08:41:14.007Z</time>
      </trkpt>
      <trkpt lat="45.53908" lon="4.39468">
        <ele>747</ele>
        <time>2017-11-12T08:41:17.007Z</time>
      </trkpt>
      <trkpt lat="45.53912" lon="4.39479">
        <ele>747</ele>
        <time>2017-11-12T08:41:20.007Z</time>
      </trkpt>
      <trkpt lat="45.53916" lon="4.39491">
        <ele>747</ele>
        <time>2017-11-12T08:41:23.007Z</time>
      </trkpt>
      <trkpt lat="45.53922" lon="4.39504">
        <ele>747</ele>
        <time>2017-11-12T08:41:26.007Z</time>
      </trkpt>
      <trkpt lat="45.53927" lon="4.39516">
        <ele>747</ele>
        <time>2017-11-12T08:41:29.007Z</time>
      </trkpt>
      <trkpt lat="45.53933" lon="4.3953">
        <ele>747</ele>
        <time>2017-11-12T08:41:32.007Z</time>
      </trkpt>
      <trkpt lat="45.53938" lon="4.39543">
        <ele>747</ele>
        <time>2017-11-12T08:41:35.007Z</time>
      </trkpt>
      <trkpt lat="45.53944" lon="4.39555">
        <ele>747</ele>
        <time>2017-11-12T08:41:38.007Z</time>
      </trkpt>
      <trkpt lat="45.53951" lon="4.39567">
        <ele>747.5769984</ele>
        <time>2017-11-12T08:41:41.007Z</time>
      </trkpt>
      <trkpt lat="45.53959" lon="4.39579">
        <ele>748</ele>
        <time>2017-11-12T08:41:45.007Z</time>
      </trkpt>
      <trkpt lat="45.53965" lon="4.3959">
        <ele>748</ele>
        <time>2017-11-12T08:41:49.007Z</time>
      </trkpt>
      <trkpt lat="45.53976" lon="4.39601">
        <ele>749</ele>
        <time>2017-11-12T08:41:54.007Z</time>
      </trkpt>
      <trkpt lat="45.53983" lon="4.39611">
        <ele>749</ele>
        <time>2017-11-12T08:41:58.007Z</time>
      </trkpt>
      <trkpt lat="45.53991" lon="4.39622">
        <ele>751.4230016</ele>
        <time>2017-11-12T08:42:02.007Z</time>
      </trkpt>
      <trkpt lat="45.54" lon="4.39633">
        <ele>751</ele>
        <time>2017-11-12T08:42:06.007Z</time>
      </trkpt>
      <trkpt lat="45.54009" lon="4.39648">
        <ele>751</ele>
        <time>2017-11-12T08:42:10.007Z</time>
      </trkpt>
      <trkpt lat="45.54015" lon="4.39661">
        <ele>751</ele>
        <time>2017-11-12T08:42:13.007Z</time>
      </trkpt>
      <trkpt lat="45.54018" lon="4.39674">
        <ele>751</ele>
        <time>2017-11-12T08:42:16.007Z</time>
      </trkpt>
      <trkpt lat="45.54022" lon="4.39688">
        <ele>751</ele>
        <time>2017-11-12T08:42:19.007Z</time>
      </trkpt>
      <trkpt lat="45.54025" lon="4.39703">
        <ele>750</ele>
        <time>2017-11-12T08:42:23.007Z</time>
      </trkpt>
      <trkpt lat="45.54029" lon="4.3972">
        <ele>750</ele>
        <time>2017-11-12T08:42:27.007Z</time>
      </trkpt>
      <trkpt lat="45.54033" lon="4.39734">
        <ele>750</ele>
        <time>2017-11-12T08:42:30.007Z</time>
      </trkpt>
      <trkpt lat="45.54038" lon="4.39748">
        <ele>749</ele>
        <time>2017-11-12T08:42:33.007Z</time>
      </trkpt>
      <trkpt lat="45.54043" lon="4.39763">
        <ele>749</ele>
        <time>2017-11-12T08:42:36.007Z</time>
      </trkpt>
      <trkpt lat="45.54047" lon="4.39779">
        <ele>749</ele>
        <time>2017-11-12T08:42:39.007Z</time>
      </trkpt>
      <trkpt lat="45.54052" lon="4.39795">
        <ele>749</ele>
        <time>2017-11-12T08:42:42.007Z</time>
      </trkpt>
      <trkpt lat="45.54056" lon="4.39809">
        <ele>749</ele>
        <time>2017-11-12T08:42:45.007Z</time>
      </trkpt>
      <trkpt lat="45.54062" lon="4.39825">
        <ele>749</ele>
        <time>2017-11-12T08:42:48.007Z</time>
      </trkpt>
      <trkpt lat="45.54069" lon="4.3984">
        <ele>747.28613793628</ele>
        <time>2017-11-12T08:42:51.007Z</time>
      </trkpt>
      <trkpt lat="45.54074" lon="4.39854">
        <ele>746</ele>
        <time>2017-11-12T08:42:53.007Z</time>
      </trkpt>
      <trkpt lat="45.54077" lon="4.39867">
        <ele>746</ele>
        <time>2017-11-12T08:42:55.007Z</time>
      </trkpt>
      <trkpt lat="45.54082" lon="4.39879">
        <ele>742</ele>
        <time>2017-11-12T08:42:57.007Z</time>
      </trkpt>
      <trkpt lat="45.54086" lon="4.3989">
        <ele>742</ele>
        <time>2017-11-12T08:42:59.007Z</time>
      </trkpt>
      <trkpt lat="45.54089" lon="4.39901">
        <ele>741.4230016</ele>
        <time>2017-11-12T08:43:01.007Z</time>
      </trkpt>
      <trkpt lat="45.54093" lon="4.39913">
        <ele>740.42871264543</ele>
        <time>2017-11-12T08:43:03.007Z</time>
      </trkpt>
      <trkpt lat="45.54095" lon="4.39924">
        <ele>739</ele>
        <time>2017-11-12T08:43:05.007Z</time>
      </trkpt>
      <trkpt lat="45.54097" lon="4.39935">
        <ele>739</ele>
        <time>2017-11-12T08:43:07.007Z</time>
      </trkpt>
      <trkpt lat="45.54099" lon="4.39946">
        <ele>738</ele>
        <time>2017-11-12T08:43:09.007Z</time>
      </trkpt>
      <trkpt lat="45.54101" lon="4.39963">
        <ele>738</ele>
        <time>2017-11-12T08:43:12.007Z</time>
      </trkpt>
      <trkpt lat="45.54104" lon="4.39977">
        <ele>738</ele>
        <time>2017-11-12T08:43:15.007Z</time>
      </trkpt>
      <trkpt lat="45.54108" lon="4.39991">
        <ele>737</ele>
        <time>2017-11-12T08:43:18.007Z</time>
      </trkpt>
      <trkpt lat="45.54115" lon="4.40001">
        <ele>737</ele>
        <time>2017-11-12T08:43:21.007Z</time>
      </trkpt>
      <trkpt lat="45.54125" lon="4.40007">
        <ele>737</ele>
        <time>2017-11-12T08:43:24.007Z</time>
      </trkpt>
      <trkpt lat="45.54134" lon="4.40016">
        <ele>737</ele>
        <time>2017-11-12T08:43:27.007Z</time>
      </trkpt>
      <trkpt lat="45.54142" lon="4.40024">
        <ele>737</ele>
        <time>2017-11-12T08:43:30.007Z</time>
      </trkpt>
      <trkpt lat="45.54151" lon="4.40034">
        <ele>738</ele>
        <time>2017-11-12T08:43:33.007Z</time>
      </trkpt>
      <trkpt lat="45.54161" lon="4.40043">
        <ele>738</ele>
        <time>2017-11-12T08:43:36.007Z</time>
      </trkpt>
      <trkpt lat="45.5417" lon="4.40052">
        <ele>738</ele>
        <time>2017-11-12T08:43:39.007Z</time>
      </trkpt>
      <trkpt lat="45.54179" lon="4.4006">
        <ele>738</ele>
        <time>2017-11-12T08:43:42.007Z</time>
      </trkpt>
      <trkpt lat="45.54186" lon="4.40067">
        <ele>738</ele>
        <time>2017-11-12T08:43:45.007Z</time>
      </trkpt>
      <trkpt lat="45.54194" lon="4.40076">
        <ele>738</ele>
        <time>2017-11-12T08:43:48.007Z</time>
      </trkpt>
      <trkpt lat="45.54201" lon="4.40085">
        <ele>739.14257470915</ele>
        <time>2017-11-12T08:43:51.007Z</time>
      </trkpt>
      <trkpt lat="45.54205" lon="4.40091">
        <ele>740</ele>
        <time>2017-11-12T08:43:53.007Z</time>
      </trkpt>
      <trkpt lat="45.54209" lon="4.40099">
        <ele>740</ele>
        <time>2017-11-12T08:43:55.007Z</time>
      </trkpt>
      <trkpt lat="45.54212" lon="4.40108">
        <ele>740</ele>
        <time>2017-11-12T08:43:57.007Z</time>
      </trkpt>
      <trkpt lat="45.54209" lon="4.40118">
        <ele>740</ele>
        <time>2017-11-12T08:43:59.007Z</time>
      </trkpt>
      <trkpt lat="45.54204" lon="4.40126">
        <ele>741.54553142857</ele>
        <time>2017-11-12T08:44:01.007Z</time>
      </trkpt>
      <trkpt lat="45.542" lon="4.40134">
        <ele>743</ele>
        <time>2017-11-12T08:44:03.007Z</time>
      </trkpt>
      <trkpt lat="45.54196" lon="4.40142">
        <ele>743</ele>
        <time>2017-11-12T08:44:05.007Z</time>
      </trkpt>
      <trkpt lat="45.54192" lon="4.4015">
        <ele>743</ele>
        <time>2017-11-12T08:44:07.007Z</time>
      </trkpt>
      <trkpt lat="45.54188" lon="4.40157">
        <ele>743</ele>
        <time>2017-11-12T08:44:09.007Z</time>
      </trkpt>
      <trkpt lat="45.54185" lon="4.40165">
        <ele>743</ele>
        <time>2017-11-12T08:44:11.007Z</time>
      </trkpt>
      <trkpt lat="45.54182" lon="4.40173">
        <ele>743</ele>
        <time>2017-11-12T08:44:13.007Z</time>
      </trkpt>
      <trkpt lat="45.54178" lon="4.4018">
        <ele>743</ele>
        <time>2017-11-12T08:44:15.007Z</time>
      </trkpt>
      <trkpt lat="45.54174" lon="4.40187">
        <ele>743</ele>
        <time>2017-11-12T08:44:17.007Z</time>
      </trkpt>
      <trkpt lat="45.5417" lon="4.40194">
        <ele>743</ele>
        <time>2017-11-12T08:44:19.007Z</time>
      </trkpt>
      <trkpt lat="45.54166" lon="4.40201">
        <ele>744.14257470915</ele>
        <time>2017-11-12T08:44:21.007Z</time>
      </trkpt>
      <trkpt lat="45.54162" lon="4.40207">
        <ele>745</ele>
        <time>2017-11-12T08:44:23.007Z</time>
      </trkpt>
      <trkpt lat="45.54157" lon="4.40212">
        <ele>745</ele>
        <time>2017-11-12T08:44:25.007Z</time>
      </trkpt>
      <trkpt lat="45.54153" lon="4.40218">
        <ele>745</ele>
        <time>2017-11-12T08:44:27.007Z</time>
      </trkpt>
      <trkpt lat="45.54148" lon="4.40224">
        <ele>745</ele>
        <time>2017-11-12T08:44:29.007Z</time>
      </trkpt>
      <trkpt lat="45.54143" lon="4.40229">
        <ele>746.1539968</ele>
        <time>2017-11-12T08:44:31.007Z</time>
      </trkpt>
      <trkpt lat="45.54139" lon="4.40234">
        <ele>747</ele>
        <time>2017-11-12T08:44:33.007Z</time>
      </trkpt>
      <trkpt lat="45.54131" lon="4.40242">
        <ele>747</ele>
        <time>2017-11-12T08:44:36.007Z</time>
      </trkpt>
      <trkpt lat="45.54123" lon="4.40249">
        <ele>747</ele>
        <time>2017-11-12T08:44:39.007Z</time>
      </trkpt>
      <trkpt lat="45.54116" lon="4.40254">
        <ele>752</ele>
        <time>2017-11-12T08:44:42.007Z</time>
      </trkpt>
      <trkpt lat="45.5411" lon="4.40258">
        <ele>752</ele>
        <time>2017-11-12T08:44:44.007Z</time>
      </trkpt>
      <trkpt lat="45.54105" lon="4.40261">
        <ele>752.1454540753</ele>
        <time>2017-11-12T08:44:46.007Z</time>
      </trkpt>
      <trkpt lat="45.541" lon="4.40264">
        <ele>753</ele>
        <time>2017-11-12T08:44:48.007Z</time>
      </trkpt>
      <trkpt lat="45.54093" lon="4.40269">
        <ele>753.57128735457</ele>
        <time>2017-11-12T08:44:51.007Z</time>
      </trkpt>
      <trkpt lat="45.54088" lon="4.40272">
        <ele>754</ele>
        <time>2017-11-12T08:44:53.007Z</time>
      </trkpt>
      <trkpt lat="45.54083" lon="4.40275">
        <ele>754</ele>
        <time>2017-11-12T08:44:55.007Z</time>
      </trkpt>
      <trkpt lat="45.54079" lon="4.40279">
        <ele>756</ele>
        <time>2017-11-12T08:44:57.007Z</time>
      </trkpt>
      <trkpt lat="45.54074" lon="4.40282">
        <ele>756</ele>
        <time>2017-11-12T08:44:59.007Z</time>
      </trkpt>
      <trkpt lat="45.54069" lon="4.40287">
        <ele>756.57272703765</ele>
        <time>2017-11-12T08:45:01.007Z</time>
      </trkpt>
      <trkpt lat="45.54065" lon="4.40292">
        <ele>757</ele>
        <time>2017-11-12T08:45:03.007Z</time>
      </trkpt>
      <trkpt lat="45.54061" lon="4.40296">
        <ele>757</ele>
        <time>2017-11-12T08:45:05.007Z</time>
      </trkpt>
      <trkpt lat="45.54056" lon="4.40299">
        <ele>758</ele>
        <time>2017-11-12T08:45:07.007Z</time>
      </trkpt>
      <trkpt lat="45.54051" lon="4.40303">
        <ele>758</ele>
        <time>2017-11-12T08:45:09.007Z</time>
      </trkpt>
      <trkpt lat="45.54044" lon="4.40309">
        <ele>759</ele>
        <time>2017-11-12T08:45:12.007Z</time>
      </trkpt>
      <trkpt lat="45.54037" lon="4.40316">
        <ele>759</ele>
        <time>2017-11-12T08:45:15.007Z</time>
      </trkpt>
      <trkpt lat="45.54031" lon="4.40322">
        <ele>760</ele>
        <time>2017-11-12T08:45:18.007Z</time>
      </trkpt>
      <trkpt lat="45.54026" lon="4.40329">
        <ele>761.14257470915</ele>
        <time>2017-11-12T08:45:21.007Z</time>
      </trkpt>
      <trkpt lat="45.5402" lon="4.40337">
        <ele>762</ele>
        <time>2017-11-12T08:45:24.007Z</time>
      </trkpt>
      <trkpt lat="45.54015" lon="4.40345">
        <ele>763</ele>
        <time>2017-11-12T08:45:27.007Z</time>
      </trkpt>
      <trkpt lat="45.5401" lon="4.40353">
        <ele>763</ele>
        <time>2017-11-12T08:45:30.007Z</time>
      </trkpt>
      <trkpt lat="45.54004" lon="4.4036">
        <ele>764</ele>
        <time>2017-11-12T08:45:33.007Z</time>
      </trkpt>
      <trkpt lat="45.54" lon="4.40368">
        <ele>765.7309952</ele>
        <time>2017-11-12T08:45:36.007Z</time>
      </trkpt>
      <trkpt lat="45.53995" lon="4.40378">
        <ele>767</ele>
        <time>2017-11-12T08:45:40.007Z</time>
      </trkpt>
      <trkpt lat="45.53991" lon="4.40386">
        <ele>768</ele>
        <time>2017-11-12T08:45:43.007Z</time>
      </trkpt>
      <trkpt lat="45.53986" lon="4.40394">
        <ele>768.5769984</ele>
        <time>2017-11-12T08:45:46.007Z</time>
      </trkpt>
      <trkpt lat="45.53981" lon="4.40402">
        <ele>769</ele>
        <time>2017-11-12T08:45:49.007Z</time>
      </trkpt>
      <trkpt lat="45.53975" lon="4.4041">
        <ele>771</ele>
        <time>2017-11-12T08:45:52.007Z</time>
      </trkpt>
      <trkpt lat="45.53969" lon="4.40418">
        <ele>771</ele>
        <time>2017-11-12T08:45:55.007Z</time>
      </trkpt>
      <trkpt lat="45.53964" lon="4.40426">
        <ele>772</ele>
        <time>2017-11-12T08:45:58.007Z</time>
      </trkpt>
      <trkpt lat="45.53959" lon="4.40434">
        <ele>773.14257470915</ele>
        <time>2017-11-12T08:46:01.007Z</time>
      </trkpt>
      <trkpt lat="45.53955" lon="4.4044">
        <ele>774</ele>
        <time>2017-11-12T08:46:04.007Z</time>
      </trkpt>
      <trkpt lat="45.53951" lon="4.40447">
        <ele>775</ele>
        <time>2017-11-12T08:46:07.007Z</time>
      </trkpt>
      <trkpt lat="45.53947" lon="4.40458">
        <ele>776.1539968</ele>
        <time>2017-11-12T08:46:11.007Z</time>
      </trkpt>
      <trkpt lat="45.53946" lon="4.40472">
        <ele>777</ele>
        <time>2017-11-12T08:46:15.007Z</time>
      </trkpt>
      <trkpt lat="45.5395" lon="4.40486">
        <ele>779</ele>
        <time>2017-11-12T08:46:19.007Z</time>
      </trkpt>
      <trkpt lat="45.53952" lon="4.40498">
        <ele>779.42727296235</ele>
        <time>2017-11-12T08:46:22.007Z</time>
      </trkpt>
      <trkpt lat="45.53953" lon="4.40508">
        <ele>779</ele>
        <time>2017-11-12T08:46:25.007Z</time>
      </trkpt>
      <trkpt lat="45.53954" lon="4.40519">
        <ele>780</ele>
        <time>2017-11-12T08:46:28.007Z</time>
      </trkpt>
      <trkpt lat="45.53954" lon="4.40531">
        <ele>781.1539968</ele>
        <time>2017-11-12T08:46:31.007Z</time>
      </trkpt>
      <trkpt lat="45.53956" lon="4.40545">
        <ele>782</ele>
        <time>2017-11-12T08:46:35.007Z</time>
      </trkpt>
      <trkpt lat="45.53957" lon="4.40558">
        <ele>785</ele>
        <time>2017-11-12T08:46:39.007Z</time>
      </trkpt>
      <trkpt lat="45.53958" lon="4.4057">
        <ele>786</ele>
        <time>2017-11-12T08:46:42.007Z</time>
      </trkpt>
      <trkpt lat="45.53958" lon="4.40583">
        <ele>786</ele>
        <time>2017-11-12T08:46:45.007Z</time>
      </trkpt>
      <trkpt lat="45.53956" lon="4.40595">
        <ele>786</ele>
        <time>2017-11-12T08:46:48.007Z</time>
      </trkpt>
      <trkpt lat="45.53953" lon="4.40606">
        <ele>786.57128735457</ele>
        <time>2017-11-12T08:46:51.007Z</time>
      </trkpt>
      <trkpt lat="45.53951" lon="4.40617">
        <ele>787</ele>
        <time>2017-11-12T08:46:54.007Z</time>
      </trkpt>
      <trkpt lat="45.5395" lon="4.40627">
        <ele>787</ele>
        <time>2017-11-12T08:46:57.007Z</time>
      </trkpt>
      <trkpt lat="45.53947" lon="4.40637">
        <ele>787</ele>
        <time>2017-11-12T08:47:00.007Z</time>
      </trkpt>
      <trkpt lat="45.53944" lon="4.40647">
        <ele>789</ele>
        <time>2017-11-12T08:47:03.007Z</time>
      </trkpt>
      <trkpt lat="45.53941" lon="4.40657">
        <ele>789</ele>
        <time>2017-11-12T08:47:06.007Z</time>
      </trkpt>
      <trkpt lat="45.53937" lon="4.40668">
        <ele>789</ele>
        <time>2017-11-12T08:47:10.007Z</time>
      </trkpt>
      <trkpt lat="45.53932" lon="4.4068">
        <ele>792</ele>
        <time>2017-11-12T08:47:15.007Z</time>
      </trkpt>
      <trkpt lat="45.53927" lon="4.40693">
        <ele>794</ele>
        <time>2017-11-12T08:47:20.007Z</time>
      </trkpt>
      <trkpt lat="45.53923" lon="4.40707">
        <ele>796</ele>
        <time>2017-11-12T08:47:26.007Z</time>
      </trkpt>
      <trkpt lat="45.53918" lon="4.40719">
        <ele>796</ele>
        <time>2017-11-12T08:47:30.007Z</time>
      </trkpt>
      <trkpt lat="45.53912" lon="4.40733">
        <ele>797</ele>
        <time>2017-11-12T08:47:34.007Z</time>
      </trkpt>
      <trkpt lat="45.53905" lon="4.40747">
        <ele>797</ele>
        <time>2017-11-12T08:47:38.007Z</time>
      </trkpt>
      <trkpt lat="45.53897" lon="4.40759">
        <ele>799</ele>
        <time>2017-11-12T08:47:42.007Z</time>
      </trkpt>
      <trkpt lat="45.53891" lon="4.40768">
        <ele>799</ele>
        <time>2017-11-12T08:47:45.007Z</time>
      </trkpt>
      <trkpt lat="45.53885" lon="4.40777">
        <ele>799</ele>
        <time>2017-11-12T08:47:48.007Z</time>
      </trkpt>
      <trkpt lat="45.53877" lon="4.4079">
        <ele>801</ele>
        <time>2017-11-12T08:47:53.007Z</time>
      </trkpt>
      <trkpt lat="45.53869" lon="4.40801">
        <ele>802</ele>
        <time>2017-11-12T08:47:57.007Z</time>
      </trkpt>
      <trkpt lat="45.53861" lon="4.40812">
        <ele>802.5769984</ele>
        <time>2017-11-12T08:48:01.007Z</time>
      </trkpt>
      <trkpt lat="45.53853" lon="4.40823">
        <ele>803</ele>
        <time>2017-11-12T08:48:05.007Z</time>
      </trkpt>
      <trkpt lat="45.53847" lon="4.40835">
        <ele>803</ele>
        <time>2017-11-12T08:48:09.007Z</time>
      </trkpt>
      <trkpt lat="45.5384" lon="4.40848">
        <ele>805</ele>
        <time>2017-11-12T08:48:13.007Z</time>
      </trkpt>
      <trkpt lat="45.53836" lon="4.4086">
        <ele>808</ele>
        <time>2017-11-12T08:48:17.007Z</time>
      </trkpt>
      <trkpt lat="45.53833" lon="4.40872">
        <ele>808.57128735457</ele>
        <time>2017-11-12T08:48:21.007Z</time>
      </trkpt>
      <trkpt lat="45.53829" lon="4.40885">
        <ele>809</ele>
        <time>2017-11-12T08:48:25.007Z</time>
      </trkpt>
      <trkpt lat="45.53827" lon="4.409">
        <ele>811</ele>
        <time>2017-11-12T08:48:29.007Z</time>
      </trkpt>
      <trkpt lat="45.53825" lon="4.40907">
        <ele>811.5769984</ele>
        <time>2017-11-12T08:48:31.007Z</time>
      </trkpt>
      <trkpt lat="45.53822" lon="4.40923">
        <ele>812</ele>
        <time>2017-11-12T08:48:36.007Z</time>
      </trkpt>
      <trkpt lat="45.53821" lon="4.40938">
        <ele>812</ele>
        <time>2017-11-12T08:48:40.007Z</time>
      </trkpt>
      <trkpt lat="45.53819" lon="4.40954">
        <ele>813</ele>
        <time>2017-11-12T08:48:45.007Z</time>
      </trkpt>
      <trkpt lat="45.53818" lon="4.4097">
        <ele>813</ele>
        <time>2017-11-12T08:48:50.007Z</time>
      </trkpt>
      <trkpt lat="45.53816" lon="4.40985">
        <ele>815</ele>
        <time>2017-11-12T08:48:55.007Z</time>
      </trkpt>
      <trkpt lat="45.53812" lon="4.41">
        <ele>815</ele>
        <time>2017-11-12T08:49:00.007Z</time>
      </trkpt>
      <trkpt lat="45.53807" lon="4.41012">
        <ele>819</ele>
        <time>2017-11-12T08:49:04.007Z</time>
      </trkpt>
      <trkpt lat="45.53799" lon="4.41023">
        <ele>820</ele>
        <time>2017-11-12T08:49:08.007Z</time>
      </trkpt>
      <trkpt lat="45.53791" lon="4.41035">
        <ele>821</ele>
        <time>2017-11-12T08:49:12.007Z</time>
      </trkpt>
      <trkpt lat="45.53782" lon="4.41044">
        <ele>821</ele>
        <time>2017-11-12T08:49:16.007Z</time>
      </trkpt>
      <trkpt lat="45.53774" lon="4.41053">
        <ele>821</ele>
        <time>2017-11-12T08:49:20.007Z</time>
      </trkpt>
      <trkpt lat="45.53764" lon="4.41061">
        <ele>823</ele>
        <time>2017-11-12T08:49:24.007Z</time>
      </trkpt>
      <trkpt lat="45.53755" lon="4.41067">
        <ele>823</ele>
        <time>2017-11-12T08:49:28.007Z</time>
      </trkpt>
      <trkpt lat="45.53744" lon="4.41071">
        <ele>827</ele>
        <time>2017-11-12T08:49:33.007Z</time>
      </trkpt>
      <trkpt lat="45.53733" lon="4.41073">
        <ele>828</ele>
        <time>2017-11-12T08:49:38.007Z</time>
      </trkpt>
      <trkpt lat="45.53722" lon="4.41074">
        <ele>828</ele>
        <time>2017-11-12T08:49:43.007Z</time>
      </trkpt>
      <trkpt lat="45.53711" lon="4.41075">
        <ele>828</ele>
        <time>2017-11-12T08:49:49.007Z</time>
      </trkpt>
      <trkpt lat="45.537" lon="4.41077">
        <ele>832</ele>
        <time>2017-11-12T08:49:54.007Z</time>
      </trkpt>
      <trkpt lat="45.5369" lon="4.41079">
        <ele>834</ele>
        <time>2017-11-12T08:49:58.007Z</time>
      </trkpt>
      <trkpt lat="45.53679" lon="4.41079">
        <ele>834</ele>
        <time>2017-11-12T08:50:02.007Z</time>
      </trkpt>
      <trkpt lat="45.53668" lon="4.41079">
        <ele>834</ele>
        <time>2017-11-12T08:50:06.007Z</time>
      </trkpt>
      <trkpt lat="45.53657" lon="4.41078">
        <ele>834</ele>
        <time>2017-11-12T08:50:10.007Z</time>
      </trkpt>
      <trkpt lat="45.53646" lon="4.41077">
        <ele>837</ele>
        <time>2017-11-12T08:50:14.007Z</time>
      </trkpt>
      <trkpt lat="45.53637" lon="4.41076">
        <ele>838</ele>
        <time>2017-11-12T08:50:17.007Z</time>
      </trkpt>
      <trkpt lat="45.53629" lon="4.41075">
        <ele>838</ele>
        <time>2017-11-12T08:50:20.007Z</time>
      </trkpt>
      <trkpt lat="45.53619" lon="4.41071">
        <ele>839</ele>
        <time>2017-11-12T08:50:24.007Z</time>
      </trkpt>
      <trkpt lat="45.53607" lon="4.4107">
        <ele>841</ele>
        <time>2017-11-12T08:50:28.007Z</time>
      </trkpt>
      <trkpt lat="45.53597" lon="4.41066">
        <ele>841</ele>
        <time>2017-11-12T08:50:32.007Z</time>
      </trkpt>
      <trkpt lat="45.53586" lon="4.41063">
        <ele>841</ele>
        <time>2017-11-12T08:50:37.007Z</time>
      </trkpt>
      <trkpt lat="45.53576" lon="4.41059">
        <ele>843</ele>
        <time>2017-11-12T08:50:42.007Z</time>
      </trkpt>
      <trkpt lat="45.53566" lon="4.41058">
        <ele>843</ele>
        <time>2017-11-12T08:50:46.007Z</time>
      </trkpt>
      <trkpt lat="45.53556" lon="4.41055">
        <ele>843</ele>
        <time>2017-11-12T08:50:50.007Z</time>
      </trkpt>
      <trkpt lat="45.53545" lon="4.41054">
        <ele>843</ele>
        <time>2017-11-12T08:50:54.007Z</time>
      </trkpt>
      <trkpt lat="45.53535" lon="4.41051">
        <ele>843</ele>
        <time>2017-11-12T08:50:58.007Z</time>
      </trkpt>
      <trkpt lat="45.53523" lon="4.41048">
        <ele>845</ele>
        <time>2017-11-12T08:51:02.007Z</time>
      </trkpt>
      <trkpt lat="45.5351" lon="4.41047">
        <ele>845</ele>
        <time>2017-11-12T08:51:06.007Z</time>
      </trkpt>
      <trkpt lat="45.53499" lon="4.41044">
        <ele>845</ele>
        <time>2017-11-12T08:51:10.007Z</time>
      </trkpt>
      <trkpt lat="45.53488" lon="4.41042">
        <ele>845</ele>
        <time>2017-11-12T08:51:14.007Z</time>
      </trkpt>
      <trkpt lat="45.53475" lon="4.41042">
        <ele>845</ele>
        <time>2017-11-12T08:51:18.007Z</time>
      </trkpt>
      <trkpt lat="45.53465" lon="4.41042">
        <ele>845</ele>
        <time>2017-11-12T08:51:21.007Z</time>
      </trkpt>
      <trkpt lat="45.53453" lon="4.41041">
        <ele>845</ele>
        <time>2017-11-12T08:51:25.007Z</time>
      </trkpt>
      <trkpt lat="45.53441" lon="4.4104">
        <ele>845</ele>
        <time>2017-11-12T08:51:29.007Z</time>
      </trkpt>
      <trkpt lat="45.53429" lon="4.41038">
        <ele>847</ele>
        <time>2017-11-12T08:51:33.007Z</time>
      </trkpt>
      <trkpt lat="45.53419" lon="4.41037">
        <ele>847</ele>
        <time>2017-11-12T08:51:37.007Z</time>
      </trkpt>
      <trkpt lat="45.53408" lon="4.41035">
        <ele>847</ele>
        <time>2017-11-12T08:51:40.007Z</time>
      </trkpt>
      <trkpt lat="45.53398" lon="4.41034">
        <ele>849</ele>
        <time>2017-11-12T08:51:43.007Z</time>
      </trkpt>
      <trkpt lat="45.53386" lon="4.41033">
        <ele>850</ele>
        <time>2017-11-12T08:51:47.007Z</time>
      </trkpt>
      <trkpt lat="45.53376" lon="4.41033">
        <ele>850</ele>
        <time>2017-11-12T08:51:50.007Z</time>
      </trkpt>
      <trkpt lat="45.53366" lon="4.41032">
        <ele>852</ele>
        <time>2017-11-12T08:51:54.007Z</time>
      </trkpt>
      <trkpt lat="45.53356" lon="4.4103">
        <ele>854</ele>
        <time>2017-11-12T08:51:57.007Z</time>
      </trkpt>
      <trkpt lat="45.53348" lon="4.41028">
        <ele>854</ele>
        <time>2017-11-12T08:52:00.007Z</time>
      </trkpt>
      <trkpt lat="45.53339" lon="4.41025">
        <ele>856</ele>
        <time>2017-11-12T08:52:03.007Z</time>
      </trkpt>
      <trkpt lat="45.53331" lon="4.41022">
        <ele>856.5769984</ele>
        <time>2017-11-12T08:52:06.007Z</time>
      </trkpt>
      <trkpt lat="45.53323" lon="4.41018">
        <ele>857</ele>
        <time>2017-11-12T08:52:09.007Z</time>
      </trkpt>
      <trkpt lat="45.53315" lon="4.41014">
        <ele>859</ele>
        <time>2017-11-12T08:52:12.007Z</time>
      </trkpt>
      <trkpt lat="45.53308" lon="4.41011">
        <ele>859</ele>
        <time>2017-11-12T08:52:15.007Z</time>
      </trkpt>
      <trkpt lat="45.533" lon="4.41009">
        <ele>860</ele>
        <time>2017-11-12T08:52:18.007Z</time>
      </trkpt>
      <trkpt lat="45.53293" lon="4.41007">
        <ele>860.57128735457</ele>
        <time>2017-11-12T08:52:21.007Z</time>
      </trkpt>
      <trkpt lat="45.53286" lon="4.41006">
        <ele>861</ele>
        <time>2017-11-12T08:52:24.007Z</time>
      </trkpt>
      <trkpt lat="45.53278" lon="4.41005">
        <ele>861</ele>
        <time>2017-11-12T08:52:27.007Z</time>
      </trkpt>
      <trkpt lat="45.5327" lon="4.41003">
        <ele>861</ele>
        <time>2017-11-12T08:52:30.007Z</time>
      </trkpt>
      <trkpt lat="45.53262" lon="4.41001">
        <ele>862</ele>
        <time>2017-11-12T08:52:33.007Z</time>
      </trkpt>
      <trkpt lat="45.53254" lon="4.41">
        <ele>862</ele>
        <time>2017-11-12T08:52:36.007Z</time>
      </trkpt>
      <trkpt lat="45.53246" lon="4.40999">
        <ele>862</ele>
        <time>2017-11-12T08:52:39.007Z</time>
      </trkpt>
      <trkpt lat="45.53239" lon="4.40999">
        <ele>865</ele>
        <time>2017-11-12T08:52:42.007Z</time>
      </trkpt>
      <trkpt lat="45.53231" lon="4.41">
        <ele>865</ele>
        <time>2017-11-12T08:52:45.007Z</time>
      </trkpt>
      <trkpt lat="45.53224" lon="4.40996">
        <ele>866</ele>
        <time>2017-11-12T08:52:48.007Z</time>
      </trkpt>
      <trkpt lat="45.53222" lon="4.40987">
        <ele>866.57128735457</ele>
        <time>2017-11-12T08:52:51.007Z</time>
      </trkpt>
      <trkpt lat="45.53225" lon="4.40977">
        <ele>867</ele>
        <time>2017-11-12T08:52:53.007Z</time>
      </trkpt>
      <trkpt lat="45.53231" lon="4.40967">
        <ele>867.5769984</ele>
        <time>2017-11-12T08:52:56.007Z</time>
      </trkpt>
      <trkpt lat="45.53239" lon="4.40958">
        <ele>868</ele>
        <time>2017-11-12T08:52:59.007Z</time>
      </trkpt>
      <trkpt lat="45.53246" lon="4.4095">
        <ele>867</ele>
        <time>2017-11-12T08:53:02.007Z</time>
      </trkpt>
      <trkpt lat="45.53252" lon="4.40943">
        <ele>867</ele>
        <time>2017-11-12T08:53:05.007Z</time>
      </trkpt>
      <trkpt lat="45.53259" lon="4.40934">
        <ele>867</ele>
        <time>2017-11-12T08:53:08.007Z</time>
      </trkpt>
      <trkpt lat="45.53265" lon="4.40925">
        <ele>868.1539968</ele>
        <time>2017-11-12T08:53:11.007Z</time>
      </trkpt>
      <trkpt lat="45.53272" lon="4.40914">
        <ele>869</ele>
        <time>2017-11-12T08:53:14.007Z</time>
      </trkpt>
      <trkpt lat="45.53277" lon="4.40904">
        <ele>869</ele>
        <time>2017-11-12T08:53:17.007Z</time>
      </trkpt>
      <trkpt lat="45.53284" lon="4.40894">
        <ele>869</ele>
        <time>2017-11-12T08:53:20.007Z</time>
      </trkpt>
      <trkpt lat="45.53289" lon="4.40883">
        <ele>868</ele>
        <time>2017-11-12T08:53:23.007Z</time>
      </trkpt>
      <trkpt lat="45.53294" lon="4.40873">
        <ele>868</ele>
        <time>2017-11-12T08:53:26.007Z</time>
      </trkpt>
      <trkpt lat="45.5329" lon="4.40863">
        <ele>868</ele>
        <time>2017-11-12T08:53:29.007Z</time>
      </trkpt>
      <trkpt lat="45.53279" lon="4.40857">
        <ele>869</ele>
        <time>2017-11-12T08:53:32.007Z</time>
      </trkpt>
      <trkpt lat="45.53272" lon="4.40855">
        <ele>869</ele>
        <time>2017-11-12T08:53:34.007Z</time>
      </trkpt>
      <trkpt lat="45.53265" lon="4.40853">
        <ele>869</ele>
        <time>2017-11-12T08:53:36.007Z</time>
      </trkpt>
      <trkpt lat="45.53259" lon="4.4085">
        <ele>869</ele>
        <time>2017-11-12T08:53:38.007Z</time>
      </trkpt>
      <trkpt lat="45.53253" lon="4.40848">
        <ele>869</ele>
        <time>2017-11-12T08:53:40.007Z</time>
      </trkpt>
      <trkpt lat="45.53247" lon="4.40846">
        <ele>870</ele>
        <time>2017-11-12T08:53:42.007Z</time>
      </trkpt>
      <trkpt lat="45.53239" lon="4.40843">
        <ele>870</ele>
        <time>2017-11-12T08:53:45.007Z</time>
      </trkpt>
      <trkpt lat="45.53231" lon="4.4084">
        <ele>870</ele>
        <time>2017-11-12T08:53:48.007Z</time>
      </trkpt>
      <trkpt lat="45.53223" lon="4.40836">
        <ele>871.14257470915</ele>
        <time>2017-11-12T08:53:51.007Z</time>
      </trkpt>
      <trkpt lat="45.53216" lon="4.40833">
        <ele>872</ele>
        <time>2017-11-12T08:53:54.007Z</time>
      </trkpt>
      <trkpt lat="45.53208" lon="4.4083">
        <ele>872</ele>
        <time>2017-11-12T08:53:57.007Z</time>
      </trkpt>
      <trkpt lat="45.53198" lon="4.40824">
        <ele>875.4619904</ele>
        <time>2017-11-12T08:54:01.007Z</time>
      </trkpt>
      <trkpt lat="45.53192" lon="4.40816">
        <ele>878</ele>
        <time>2017-11-12T08:54:04.007Z</time>
      </trkpt>
      <trkpt lat="45.53182" lon="4.40811">
        <ele>878</ele>
        <time>2017-11-12T08:54:08.007Z</time>
      </trkpt>
      <trkpt lat="45.53173" lon="4.40812">
        <ele>879</ele>
        <time>2017-11-12T08:54:12.007Z</time>
      </trkpt>
      <trkpt lat="45.53166" lon="4.40816">
        <ele>879</ele>
        <time>2017-11-12T08:54:15.007Z</time>
      </trkpt>
      <trkpt lat="45.53156" lon="4.40819">
        <ele>879</ele>
        <time>2017-11-12T08:54:18.007Z</time>
      </trkpt>
      <trkpt lat="45.53147" lon="4.40818">
        <ele>880.14257470915</ele>
        <time>2017-11-12T08:54:21.007Z</time>
      </trkpt>
      <trkpt lat="45.5314" lon="4.40813">
        <ele>881</ele>
        <time>2017-11-12T08:54:24.007Z</time>
      </trkpt>
      <trkpt lat="45.53133" lon="4.40805">
        <ele>881</ele>
        <time>2017-11-12T08:54:27.007Z</time>
      </trkpt>
      <trkpt lat="45.53125" lon="4.40796">
        <ele>881</ele>
        <time>2017-11-12T08:54:30.007Z</time>
      </trkpt>
      <trkpt lat="45.53117" lon="4.40786">
        <ele>881</ele>
        <time>2017-11-12T08:54:33.007Z</time>
      </trkpt>
      <trkpt lat="45.53112" lon="4.40772">
        <ele>881</ele>
        <time>2017-11-12T08:54:36.007Z</time>
      </trkpt>
      <trkpt lat="45.5311" lon="4.40761">
        <ele>881</ele>
        <time>2017-11-12T08:54:38.007Z</time>
      </trkpt>
      <trkpt lat="45.53105" lon="4.40748">
        <ele>879.2690048</ele>
        <time>2017-11-12T08:54:41.007Z</time>
      </trkpt>
      <trkpt lat="45.53101" lon="4.40734">
        <ele>878</ele>
        <time>2017-11-12T08:54:44.007Z</time>
      </trkpt>
      <trkpt lat="45.53102" lon="4.40717">
        <ele>877</ele>
        <time>2017-11-12T08:54:47.007Z</time>
      </trkpt>
      <trkpt lat="45.53102" lon="4.40706">
        <ele>877</ele>
        <time>2017-11-12T08:54:49.007Z</time>
      </trkpt>
      <trkpt lat="45.53103" lon="4.40696">
        <ele>876.42871264543</ele>
        <time>2017-11-12T08:54:51.007Z</time>
      </trkpt>
      <trkpt lat="45.531" lon="4.40682">
        <ele>876</ele>
        <time>2017-11-12T08:54:54.007Z</time>
      </trkpt>
      <trkpt lat="45.53092" lon="4.40671">
        <ele>876</ele>
        <time>2017-11-12T08:54:57.007Z</time>
      </trkpt>
      <trkpt lat="45.53082" lon="4.4066">
        <ele>876</ele>
        <time>2017-11-12T08:55:00.007Z</time>
      </trkpt>
      <trkpt lat="45.53075" lon="4.40653">
        <ele>868.8460032</ele>
        <time>2017-11-12T08:55:02.007Z</time>
      </trkpt>
      <trkpt lat="45.53068" lon="4.40646">
        <ele>866.42727296235</ele>
        <time>2017-11-12T08:55:04.007Z</time>
      </trkpt>
      <trkpt lat="45.53061" lon="4.40638">
        <ele>866</ele>
        <time>2017-11-12T08:55:06.007Z</time>
      </trkpt>
      <trkpt lat="45.53055" lon="4.40629">
        <ele>865.5769984</ele>
        <time>2017-11-12T08:55:08.007Z</time>
      </trkpt>
      <trkpt lat="45.53047" lon="4.4062">
        <ele>864</ele>
        <time>2017-11-12T08:55:10.007Z</time>
      </trkpt>
      <trkpt lat="45.5304" lon="4.40613">
        <ele>862</ele>
        <time>2017-11-12T08:55:12.007Z</time>
      </trkpt>
      <trkpt lat="45.53034" lon="4.40605">
        <ele>862</ele>
        <time>2017-11-12T08:55:14.007Z</time>
      </trkpt>
      <trkpt lat="45.53028" lon="4.40597">
        <ele>862.42727296235</ele>
        <time>2017-11-12T08:55:16.007Z</time>
      </trkpt>
      <trkpt lat="45.53023" lon="4.40587">
        <ele>861.4230016</ele>
        <time>2017-11-12T08:55:18.007Z</time>
      </trkpt>
      <trkpt lat="45.53018" lon="4.40576">
        <ele>859.4230016</ele>
        <time>2017-11-12T08:55:20.007Z</time>
      </trkpt>
      <trkpt lat="45.53013" lon="4.40565">
        <ele>859</ele>
        <time>2017-11-12T08:55:22.007Z</time>
      </trkpt>
      <trkpt lat="45.53009" lon="4.40554">
        <ele>859</ele>
        <time>2017-11-12T08:55:24.007Z</time>
      </trkpt>
      <trkpt lat="45.53003" lon="4.40544">
        <ele>857.8460032</ele>
        <time>2017-11-12T08:55:26.007Z</time>
      </trkpt>
      <trkpt lat="45.52997" lon="4.40534">
        <ele>857</ele>
        <time>2017-11-12T08:55:28.007Z</time>
      </trkpt>
      <trkpt lat="45.52993" lon="4.40524">
        <ele>857</ele>
        <time>2017-11-12T08:55:30.007Z</time>
      </trkpt>
      <trkpt lat="45.52988" lon="4.40515">
        <ele>855</ele>
        <time>2017-11-12T08:55:32.007Z</time>
      </trkpt>
      <trkpt lat="45.52983" lon="4.40505">
        <ele>855</ele>
        <time>2017-11-12T08:55:34.007Z</time>
      </trkpt>
      <trkpt lat="45.52978" lon="4.40495">
        <ele>854.4230016</ele>
        <time>2017-11-12T08:55:36.007Z</time>
      </trkpt>
      <trkpt lat="45.52974" lon="4.40485">
        <ele>854</ele>
        <time>2017-11-12T08:55:38.007Z</time>
      </trkpt>
      <trkpt lat="45.5297" lon="4.40475">
        <ele>854</ele>
        <time>2017-11-12T08:55:40.007Z</time>
      </trkpt>
      <trkpt lat="45.52966" lon="4.40465">
        <ele>853</ele>
        <time>2017-11-12T08:55:42.007Z</time>
      </trkpt>
      <trkpt lat="45.52962" lon="4.40455">
        <ele>853</ele>
        <time>2017-11-12T08:55:44.007Z</time>
      </trkpt>
      <trkpt lat="45.52958" lon="4.40444">
        <ele>853</ele>
        <time>2017-11-12T08:55:46.007Z</time>
      </trkpt>
      <trkpt lat="45.52954" lon="4.40435">
        <ele>853</ele>
        <time>2017-11-12T08:55:48.007Z</time>
      </trkpt>
      <trkpt lat="45.52947" lon="4.40426">
        <ele>853</ele>
        <time>2017-11-12T08:55:51.007Z</time>
      </trkpt>
      <trkpt lat="45.52938" lon="4.40424">
        <ele>853</ele>
        <time>2017-11-12T08:55:54.007Z</time>
      </trkpt>
      <trkpt lat="45.52927" lon="4.40424">
        <ele>853</ele>
        <time>2017-11-12T08:55:57.007Z</time>
      </trkpt>
      <trkpt lat="45.52916" lon="4.40424">
        <ele>853</ele>
        <time>2017-11-12T08:56:00.007Z</time>
      </trkpt>
      <trkpt lat="45.52909" lon="4.40424">
        <ele>852</ele>
        <time>2017-11-12T08:56:02.007Z</time>
      </trkpt>
      <trkpt lat="45.52902" lon="4.40425">
        <ele>852</ele>
        <time>2017-11-12T08:56:04.007Z</time>
      </trkpt>
      <trkpt lat="45.52895" lon="4.40424">
        <ele>852</ele>
        <time>2017-11-12T08:56:06.007Z</time>
      </trkpt>
      <trkpt lat="45.52891" lon="4.40408">
        <ele>852</ele>
        <time>2017-11-12T08:56:10.007Z</time>
      </trkpt>
      <trkpt lat="45.52891" lon="4.40395">
        <ele>851</ele>
        <time>2017-11-12T08:56:12.007Z</time>
      </trkpt>
      <trkpt lat="45.52889" lon="4.40384">
        <ele>851</ele>
        <time>2017-11-12T08:56:14.007Z</time>
      </trkpt>
      <trkpt lat="45.52888" lon="4.40372">
        <ele>851</ele>
        <time>2017-11-12T08:56:16.007Z</time>
      </trkpt>
      <trkpt lat="45.52886" lon="4.4036">
        <ele>851</ele>
        <time>2017-11-12T08:56:18.007Z</time>
      </trkpt>
      <trkpt lat="45.52884" lon="4.40348">
        <ele>851</ele>
        <time>2017-11-12T08:56:20.007Z</time>
      </trkpt>
      <trkpt lat="45.52881" lon="4.40337">
        <ele>848</ele>
        <time>2017-11-12T08:56:22.007Z</time>
      </trkpt>
      <trkpt lat="45.52878" lon="4.40326">
        <ele>848</ele>
        <time>2017-11-12T08:56:24.007Z</time>
      </trkpt>
      <trkpt lat="45.52873" lon="4.40309">
        <ele>846</ele>
        <time>2017-11-12T08:56:27.007Z</time>
      </trkpt>
      <trkpt lat="45.52867" lon="4.40291">
        <ele>846</ele>
        <time>2017-11-12T08:56:30.007Z</time>
      </trkpt>
      <trkpt lat="45.52861" lon="4.40274">
        <ele>844</ele>
        <time>2017-11-12T08:56:33.007Z</time>
      </trkpt>
      <trkpt lat="45.52855" lon="4.40259">
        <ele>842.8460032</ele>
        <time>2017-11-12T08:56:36.007Z</time>
      </trkpt>
      <trkpt lat="45.5285" lon="4.40245">
        <ele>842</ele>
        <time>2017-11-12T08:56:39.007Z</time>
      </trkpt>
      <trkpt lat="45.52844" lon="4.4023">
        <ele>841</ele>
        <time>2017-11-12T08:56:42.007Z</time>
      </trkpt>
      <trkpt lat="45.52838" lon="4.40216">
        <ele>841</ele>
        <time>2017-11-12T08:56:45.007Z</time>
      </trkpt>
      <trkpt lat="45.52832" lon="4.40204">
        <ele>841</ele>
        <time>2017-11-12T08:56:48.007Z</time>
      </trkpt>
      <trkpt lat="45.52826" lon="4.40191">
        <ele>840.42871264543</ele>
        <time>2017-11-12T08:56:51.007Z</time>
      </trkpt>
      <trkpt lat="45.5282" lon="4.40178">
        <ele>840</ele>
        <time>2017-11-12T08:56:54.007Z</time>
      </trkpt>
      <trkpt lat="45.52813" lon="4.40166">
        <ele>840</ele>
        <time>2017-11-12T08:56:57.007Z</time>
      </trkpt>
      <trkpt lat="45.52806" lon="4.40154">
        <ele>840</ele>
        <time>2017-11-12T08:57:00.007Z</time>
      </trkpt>
      <trkpt lat="45.52799" lon="4.40141">
        <ele>837</ele>
        <time>2017-11-12T08:57:03.007Z</time>
      </trkpt>
      <trkpt lat="45.52793" lon="4.40127">
        <ele>835.8460032</ele>
        <time>2017-11-12T08:57:06.007Z</time>
      </trkpt>
      <trkpt lat="45.52786" lon="4.40114">
        <ele>835</ele>
        <time>2017-11-12T08:57:09.007Z</time>
      </trkpt>
      <trkpt lat="45.52777" lon="4.40101">
        <ele>834</ele>
        <time>2017-11-12T08:57:12.007Z</time>
      </trkpt>
      <trkpt lat="45.5277" lon="4.40089">
        <ele>834</ele>
        <time>2017-11-12T08:57:15.007Z</time>
      </trkpt>
      <trkpt lat="45.52762" lon="4.40076">
        <ele>833</ele>
        <time>2017-11-12T08:57:18.007Z</time>
      </trkpt>
      <trkpt lat="45.52754" lon="4.40064">
        <ele>833</ele>
        <time>2017-11-12T08:57:21.007Z</time>
      </trkpt>
      <trkpt lat="45.52746" lon="4.40051">
        <ele>833</ele>
        <time>2017-11-12T08:57:24.007Z</time>
      </trkpt>
      <trkpt lat="45.52736" lon="4.4004">
        <ele>833</ele>
        <time>2017-11-12T08:57:27.007Z</time>
      </trkpt>
      <trkpt lat="45.52727" lon="4.40029">
        <ele>833</ele>
        <time>2017-11-12T08:57:30.007Z</time>
      </trkpt>
      <trkpt lat="45.52718" lon="4.40018">
        <ele>832</ele>
        <time>2017-11-12T08:57:33.007Z</time>
      </trkpt>
      <trkpt lat="45.52708" lon="4.40008">
        <ele>832</ele>
        <time>2017-11-12T08:57:36.007Z</time>
      </trkpt>
      <trkpt lat="45.52699" lon="4.39996">
        <ele>832</ele>
        <time>2017-11-12T08:57:39.007Z</time>
      </trkpt>
      <trkpt lat="45.52691" lon="4.39985">
        <ele>831</ele>
        <time>2017-11-12T08:57:42.007Z</time>
      </trkpt>
      <trkpt lat="45.52682" lon="4.39974">
        <ele>831</ele>
        <time>2017-11-12T08:57:45.007Z</time>
      </trkpt>
      <trkpt lat="45.52673" lon="4.39962">
        <ele>831</ele>
        <time>2017-11-12T08:57:48.007Z</time>
      </trkpt>
      <trkpt lat="45.52665" lon="4.3995">
        <ele>830.42871264543</ele>
        <time>2017-11-12T08:57:51.007Z</time>
      </trkpt>
      <trkpt lat="45.52657" lon="4.39938">
        <ele>830</ele>
        <time>2017-11-12T08:57:54.007Z</time>
      </trkpt>
      <trkpt lat="45.52648" lon="4.39927">
        <ele>830</ele>
        <time>2017-11-12T08:57:57.007Z</time>
      </trkpt>
      <trkpt lat="45.52642" lon="4.39914">
        <ele>830</ele>
        <time>2017-11-12T08:58:00.007Z</time>
      </trkpt>
      <trkpt lat="45.52637" lon="4.39899">
        <ele>825.28613793628</ele>
        <time>2017-11-12T08:58:03.007Z</time>
      </trkpt>
      <trkpt lat="45.52634" lon="4.39883">
        <ele>823.4230016</ele>
        <time>2017-11-12T08:58:06.007Z</time>
      </trkpt>
      <trkpt lat="45.52629" lon="4.39866">
        <ele>821.42871264543</ele>
        <time>2017-11-12T08:58:09.007Z</time>
      </trkpt>
      <trkpt lat="45.52625" lon="4.3985">
        <ele>821</ele>
        <time>2017-11-12T08:58:12.007Z</time>
      </trkpt>
      <trkpt lat="45.5262" lon="4.39834">
        <ele>821</ele>
        <time>2017-11-12T08:58:15.007Z</time>
      </trkpt>
      <trkpt lat="45.52617" lon="4.39818">
        <ele>819</ele>
        <time>2017-11-12T08:58:18.007Z</time>
      </trkpt>
      <trkpt lat="45.52614" lon="4.398">
        <ele>817.28613793628</ele>
        <time>2017-11-12T08:58:21.007Z</time>
      </trkpt>
      <trkpt lat="45.52613" lon="4.39788">
        <ele>814.4230016</ele>
        <time>2017-11-12T08:58:23.007Z</time>
      </trkpt>
      <trkpt lat="45.52611" lon="4.39776">
        <ele>812.8460032</ele>
        <time>2017-11-12T08:58:25.007Z</time>
      </trkpt>
      <trkpt lat="45.52608" lon="4.39758">
        <ele>812.42727296235</ele>
        <time>2017-11-12T08:58:28.007Z</time>
      </trkpt>
      <trkpt lat="45.52608" lon="4.39741">
        <ele>810.4230016</ele>
        <time>2017-11-12T08:58:31.007Z</time>
      </trkpt>
      <trkpt lat="45.52609" lon="4.39721">
        <ele>809.57272703765</ele>
        <time>2017-11-12T08:58:34.007Z</time>
      </trkpt>
      <trkpt lat="45.52609" lon="4.39702">
        <ele>808.5769984</ele>
        <time>2017-11-12T08:58:37.007Z</time>
      </trkpt>
      <trkpt lat="45.52609" lon="4.39689">
        <ele>806.85742529085</ele>
        <time>2017-11-12T08:58:39.007Z</time>
      </trkpt>
      <trkpt lat="45.52609" lon="4.39677">
        <ele>805.8686234894</ele>
        <time>2017-11-12T08:58:41.007Z</time>
      </trkpt>
      <trkpt lat="45.52609" lon="4.3966">
        <ele>805</ele>
        <time>2017-11-12T08:58:44.007Z</time>
      </trkpt>
      <trkpt lat="45.52609" lon="4.39643">
        <ele>804</ele>
        <time>2017-11-12T08:58:47.007Z</time>
      </trkpt>
      <trkpt lat="45.52609" lon="4.39631">
        <ele>804</ele>
        <time>2017-11-12T08:58:49.007Z</time>
      </trkpt>
      <trkpt lat="45.5261" lon="4.39614">
        <ele>804</ele>
        <time>2017-11-12T08:58:52.007Z</time>
      </trkpt>
      <trkpt lat="45.52612" lon="4.39602">
        <ele>804</ele>
        <time>2017-11-12T08:58:54.007Z</time>
      </trkpt>
      <trkpt lat="45.52615" lon="4.39591">
        <ele>804</ele>
        <time>2017-11-12T08:58:56.007Z</time>
      </trkpt>
      <trkpt lat="45.52617" lon="4.39579">
        <ele>804</ele>
        <time>2017-11-12T08:58:58.007Z</time>
      </trkpt>
      <trkpt lat="45.5262" lon="4.39568">
        <ele>804</ele>
        <time>2017-11-12T08:59:00.007Z</time>
      </trkpt>
      <trkpt lat="45.52623" lon="4.39557">
        <ele>802</ele>
        <time>2017-11-12T08:59:02.007Z</time>
      </trkpt>
      <trkpt lat="45.52627" lon="4.39546">
        <ele>802</ele>
        <time>2017-11-12T08:59:04.007Z</time>
      </trkpt>
      <trkpt lat="45.52631" lon="4.3953">
        <ele>802</ele>
        <time>2017-11-12T08:59:07.007Z</time>
      </trkpt>
      <trkpt lat="45.52636" lon="4.39515">
        <ele>802</ele>
        <time>2017-11-12T08:59:10.007Z</time>
      </trkpt>
      <trkpt lat="45.52639" lon="4.39505">
        <ele>801</ele>
        <time>2017-11-12T08:59:12.007Z</time>
      </trkpt>
      <trkpt lat="45.52642" lon="4.39493">
        <ele>801</ele>
        <time>2017-11-12T08:59:14.007Z</time>
      </trkpt>
      <trkpt lat="45.52645" lon="4.39477">
        <ele>801</ele>
        <time>2017-11-12T08:59:17.007Z</time>
      </trkpt>
      <trkpt lat="45.52647" lon="4.39461">
        <ele>801</ele>
        <time>2017-11-12T08:59:20.007Z</time>
      </trkpt>
      <trkpt lat="45.52646" lon="4.39444">
        <ele>798</ele>
        <time>2017-11-12T08:59:23.007Z</time>
      </trkpt>
      <trkpt lat="45.52647" lon="4.39427">
        <ele>796.2690048</ele>
        <time>2017-11-12T08:59:26.007Z</time>
      </trkpt>
      <trkpt lat="45.52648" lon="4.39409">
        <ele>795</ele>
        <time>2017-11-12T08:59:29.007Z</time>
      </trkpt>
      <trkpt lat="45.52649" lon="4.39391">
        <ele>793</ele>
        <time>2017-11-12T08:59:32.007Z</time>
      </trkpt>
      <trkpt lat="45.5265" lon="4.39372">
        <ele>792.1539968</ele>
        <time>2017-11-12T08:59:35.007Z</time>
      </trkpt>
      <trkpt lat="45.5265" lon="4.3936">
        <ele>790.8460032</ele>
        <time>2017-11-12T08:59:37.007Z</time>
      </trkpt>
      <trkpt lat="45.5265" lon="4.39347">
        <ele>790.85742529085</ele>
        <time>2017-11-12T08:59:39.007Z</time>
      </trkpt>
      <trkpt lat="45.5265" lon="4.39335">
        <ele>790.4230016</ele>
        <time>2017-11-12T08:59:41.007Z</time>
      </trkpt>
      <trkpt lat="45.52651" lon="4.39323">
        <ele>790</ele>
        <time>2017-11-12T08:59:43.007Z</time>
      </trkpt>
      <trkpt lat="45.52652" lon="4.39311">
        <ele>790</ele>
        <time>2017-11-12T08:59:45.007Z</time>
      </trkpt>
      <trkpt lat="45.52652" lon="4.39299">
        <ele>788</ele>
        <time>2017-11-12T08:59:47.007Z</time>
      </trkpt>
      <trkpt lat="45.52652" lon="4.39286">
        <ele>788</ele>
        <time>2017-11-12T08:59:49.007Z</time>
      </trkpt>
      <trkpt lat="45.52651" lon="4.39275">
        <ele>786.85742529085</ele>
        <time>2017-11-12T08:59:51.007Z</time>
      </trkpt>
      <trkpt lat="45.5265" lon="4.39263">
        <ele>786</ele>
        <time>2017-11-12T08:59:53.007Z</time>
      </trkpt>
      <trkpt lat="45.5265" lon="4.39251">
        <ele>786</ele>
        <time>2017-11-12T08:59:55.007Z</time>
      </trkpt>
      <trkpt lat="45.52648" lon="4.39234">
        <ele>785</ele>
        <time>2017-11-12T08:59:58.007Z</time>
      </trkpt>
      <trkpt lat="45.52647" lon="4.39216">
        <ele>784.4230016</ele>
        <time>2017-11-12T09:00:01.007Z</time>
      </trkpt>
      <trkpt lat="45.52644" lon="4.39199">
        <ele>784</ele>
        <time>2017-11-12T09:00:04.007Z</time>
      </trkpt>
      <trkpt lat="45.52641" lon="4.39181">
        <ele>781</ele>
        <time>2017-11-12T09:00:07.007Z</time>
      </trkpt>
      <trkpt lat="45.52638" lon="4.39163">
        <ele>781</ele>
        <time>2017-11-12T09:00:10.007Z</time>
      </trkpt>
      <trkpt lat="45.52636" lon="4.39145">
        <ele>780</ele>
        <time>2017-11-12T09:00:13.007Z</time>
      </trkpt>
      <trkpt lat="45.52634" lon="4.39128">
        <ele>779.42727296235</ele>
        <time>2017-11-12T09:00:16.007Z</time>
      </trkpt>
      <trkpt lat="45.5263" lon="4.39111">
        <ele>779</ele>
        <time>2017-11-12T09:00:19.007Z</time>
      </trkpt>
      <trkpt lat="45.52626" lon="4.39094">
        <ele>779</ele>
        <time>2017-11-12T09:00:22.007Z</time>
      </trkpt>
      <trkpt lat="45.52623" lon="4.39078">
        <ele>779</ele>
        <time>2017-11-12T09:00:25.007Z</time>
      </trkpt>
      <trkpt lat="45.52621" lon="4.39061">
        <ele>779</ele>
        <time>2017-11-12T09:00:28.007Z</time>
      </trkpt>
      <trkpt lat="45.52619" lon="4.39045">
        <ele>777.8460032</ele>
        <time>2017-11-12T09:00:31.007Z</time>
      </trkpt>
      <trkpt lat="45.52618" lon="4.39028">
        <ele>777</ele>
        <time>2017-11-12T09:00:34.007Z</time>
      </trkpt>
      <trkpt lat="45.52617" lon="4.39012">
        <ele>777</ele>
        <time>2017-11-12T09:00:37.007Z</time>
      </trkpt>
      <trkpt lat="45.52616" lon="4.38995">
        <ele>777</ele>
        <time>2017-11-12T09:00:40.007Z</time>
      </trkpt>
      <trkpt lat="45.52616" lon="4.38978">
        <ele>776</ele>
        <time>2017-11-12T09:00:43.007Z</time>
      </trkpt>
      <trkpt lat="45.52615" lon="4.38961">
        <ele>776</ele>
        <time>2017-11-12T09:00:46.007Z</time>
      </trkpt>
      <trkpt lat="45.52615" lon="4.38945">
        <ele>776</ele>
        <time>2017-11-12T09:00:49.007Z</time>
      </trkpt>
      <trkpt lat="45.52616" lon="4.38928">
        <ele>773</ele>
        <time>2017-11-12T09:00:52.007Z</time>
      </trkpt>
      <trkpt lat="45.52617" lon="4.38911">
        <ele>773</ele>
        <time>2017-11-12T09:00:55.007Z</time>
      </trkpt>
      <trkpt lat="45.52618" lon="4.389">
        <ele>772</ele>
        <time>2017-11-12T09:00:57.007Z</time>
      </trkpt>
      <trkpt lat="45.52621" lon="4.38889">
        <ele>772</ele>
        <time>2017-11-12T09:00:59.007Z</time>
      </trkpt>
      <trkpt lat="45.52624" lon="4.38879">
        <ele>769.6920064</ele>
        <time>2017-11-12T09:01:01.007Z</time>
      </trkpt>
      <trkpt lat="45.52631" lon="4.38862">
        <ele>768</ele>
        <time>2017-11-12T09:01:04.007Z</time>
      </trkpt>
      <trkpt lat="45.52636" lon="4.38851">
        <ele>767.4230016</ele>
        <time>2017-11-12T09:01:06.007Z</time>
      </trkpt>
      <trkpt lat="45.52645" lon="4.38836">
        <ele>767</ele>
        <time>2017-11-12T09:01:09.007Z</time>
      </trkpt>
      <trkpt lat="45.52654" lon="4.38821">
        <ele>766</ele>
        <time>2017-11-12T09:01:12.007Z</time>
      </trkpt>
      <trkpt lat="45.52659" lon="4.38811">
        <ele>766</ele>
        <time>2017-11-12T09:01:14.007Z</time>
      </trkpt>
      <trkpt lat="45.52665" lon="4.38797">
        <ele>765</ele>
        <time>2017-11-12T09:01:17.007Z</time>
      </trkpt>
      <trkpt lat="45.52673" lon="4.38781">
        <ele>765</ele>
        <time>2017-11-12T09:01:20.007Z</time>
      </trkpt>
      <trkpt lat="45.5268" lon="4.38766">
        <ele>763</ele>
        <time>2017-11-12T09:01:23.007Z</time>
      </trkpt>
      <trkpt lat="45.52687" lon="4.38751">
        <ele>762.4230016</ele>
        <time>2017-11-12T09:01:26.007Z</time>
      </trkpt>
      <trkpt lat="45.52694" lon="4.38735">
        <ele>762</ele>
        <time>2017-11-12T09:01:29.007Z</time>
      </trkpt>
      <trkpt lat="45.527" lon="4.38719">
        <ele>760</ele>
        <time>2017-11-12T09:01:32.007Z</time>
      </trkpt>
      <trkpt lat="45.52704" lon="4.38709">
        <ele>760</ele>
        <time>2017-11-12T09:01:34.007Z</time>
      </trkpt>
      <trkpt lat="45.5271" lon="4.38694">
        <ele>758</ele>
        <time>2017-11-12T09:01:37.007Z</time>
      </trkpt>
      <trkpt lat="45.52715" lon="4.38683">
        <ele>758</ele>
        <time>2017-11-12T09:01:39.007Z</time>
      </trkpt>
      <trkpt lat="45.52719" lon="4.38672">
        <ele>756.8460032</ele>
        <time>2017-11-12T09:01:41.007Z</time>
      </trkpt>
      <trkpt lat="45.52723" lon="4.3866">
        <ele>756</ele>
        <time>2017-11-12T09:01:43.007Z</time>
      </trkpt>
      <trkpt lat="45.52725" lon="4.38647">
        <ele>756</ele>
        <time>2017-11-12T09:01:45.007Z</time>
      </trkpt>
      <trkpt lat="45.52727" lon="4.38633">
        <ele>753</ele>
        <time>2017-11-12T09:01:47.007Z</time>
      </trkpt>
      <trkpt lat="45.52728" lon="4.38619">
        <ele>753</ele>
        <time>2017-11-12T09:01:49.007Z</time>
      </trkpt>
      <trkpt lat="45.52729" lon="4.38604">
        <ele>750.71485058171</ele>
        <time>2017-11-12T09:01:51.007Z</time>
      </trkpt>
      <trkpt lat="45.5273" lon="4.3859">
        <ele>747.4230016</ele>
        <time>2017-11-12T09:01:53.007Z</time>
      </trkpt>
      <trkpt lat="45.52729" lon="4.38576">
        <ele>744.4230016</ele>
        <time>2017-11-12T09:01:55.007Z</time>
      </trkpt>
      <trkpt lat="45.52729" lon="4.38563">
        <ele>742.42871264543</ele>
        <time>2017-11-12T09:01:57.007Z</time>
      </trkpt>
      <trkpt lat="45.52729" lon="4.38549">
        <ele>742.4230016</ele>
        <time>2017-11-12T09:01:59.007Z</time>
      </trkpt>
      <trkpt lat="45.5273" lon="4.38535">
        <ele>740.8460032</ele>
        <time>2017-11-12T09:02:01.007Z</time>
      </trkpt>
      <trkpt lat="45.52731" lon="4.38522">
        <ele>740.42871264543</ele>
        <time>2017-11-12T09:02:03.007Z</time>
      </trkpt>
      <trkpt lat="45.52733" lon="4.38503">
        <ele>739</ele>
        <time>2017-11-12T09:02:06.007Z</time>
      </trkpt>
      <trkpt lat="45.52734" lon="4.38484">
        <ele>737.42871264543</ele>
        <time>2017-11-12T09:02:09.007Z</time>
      </trkpt>
      <trkpt lat="45.52736" lon="4.38467">
        <ele>737</ele>
        <time>2017-11-12T09:02:12.007Z</time>
      </trkpt>
      <trkpt lat="45.52739" lon="4.38451">
        <ele>737</ele>
        <time>2017-11-12T09:02:15.007Z</time>
      </trkpt>
      <trkpt lat="45.52741" lon="4.38435">
        <ele>736</ele>
        <time>2017-11-12T09:02:18.007Z</time>
      </trkpt>
      <trkpt lat="45.52746" lon="4.38418">
        <ele>736</ele>
        <time>2017-11-12T09:02:21.007Z</time>
      </trkpt>
      <trkpt lat="45.52757" lon="4.38408">
        <ele>736</ele>
        <time>2017-11-12T09:02:24.007Z</time>
      </trkpt>
      <trkpt lat="45.52771" lon="4.38406">
        <ele>736</ele>
        <time>2017-11-12T09:02:27.007Z</time>
      </trkpt>
      <trkpt lat="45.52783" lon="4.38406">
        <ele>736</ele>
        <time>2017-11-12T09:02:30.007Z</time>
      </trkpt>
      <trkpt lat="45.52796" lon="4.38405">
        <ele>736</ele>
        <time>2017-11-12T09:02:33.007Z</time>
      </trkpt>
      <trkpt lat="45.52807" lon="4.38404">
        <ele>736</ele>
        <time>2017-11-12T09:02:36.007Z</time>
      </trkpt>
      <trkpt lat="45.52819" lon="4.384">
        <ele>736</ele>
        <time>2017-11-12T09:02:39.007Z</time>
      </trkpt>
      <trkpt lat="45.52831" lon="4.38396">
        <ele>732</ele>
        <time>2017-11-12T09:02:42.007Z</time>
      </trkpt>
      <trkpt lat="45.52842" lon="4.38391">
        <ele>732</ele>
        <time>2017-11-12T09:02:45.007Z</time>
      </trkpt>
      <trkpt lat="45.52853" lon="4.38387">
        <ele>730</ele>
        <time>2017-11-12T09:02:48.007Z</time>
      </trkpt>
      <trkpt lat="45.52866" lon="4.38384">
        <ele>729.42871264543</ele>
        <time>2017-11-12T09:02:51.007Z</time>
      </trkpt>
      <trkpt lat="45.5288" lon="4.38378">
        <ele>729</ele>
        <time>2017-11-12T09:02:54.007Z</time>
      </trkpt>
      <trkpt lat="45.5289" lon="4.38373">
        <ele>727.2690048</ele>
        <time>2017-11-12T09:02:56.007Z</time>
      </trkpt>
      <trkpt lat="45.52903" lon="4.38367">
        <ele>726</ele>
        <time>2017-11-12T09:02:59.007Z</time>
      </trkpt>
      <trkpt lat="45.52916" lon="4.38362">
        <ele>722.5769984</ele>
        <time>2017-11-12T09:03:02.007Z</time>
      </trkpt>
      <trkpt lat="45.52929" lon="4.38356">
        <ele>721</ele>
        <time>2017-11-12T09:03:05.007Z</time>
      </trkpt>
      <trkpt lat="45.52941" lon="4.38351">
        <ele>719.4230016</ele>
        <time>2017-11-12T09:03:08.007Z</time>
      </trkpt>
      <trkpt lat="45.52953" lon="4.38345">
        <ele>717.4230016</ele>
        <time>2017-11-12T09:03:11.007Z</time>
      </trkpt>
      <trkpt lat="45.52965" lon="4.38339">
        <ele>717</ele>
        <time>2017-11-12T09:03:14.007Z</time>
      </trkpt>
      <trkpt lat="45.52977" lon="4.38335">
        <ele>714</ele>
        <time>2017-11-12T09:03:17.007Z</time>
      </trkpt>
      <trkpt lat="45.52988" lon="4.38329">
        <ele>714</ele>
        <time>2017-11-12T09:03:20.007Z</time>
      </trkpt>
      <trkpt lat="45.52999" lon="4.38325">
        <ele>713</ele>
        <time>2017-11-12T09:03:23.007Z</time>
      </trkpt>
      <trkpt lat="45.53011" lon="4.3832">
        <ele>713</ele>
        <time>2017-11-12T09:03:26.007Z</time>
      </trkpt>
      <trkpt lat="45.53024" lon="4.38317">
        <ele>713</ele>
        <time>2017-11-12T09:03:29.007Z</time>
      </trkpt>
      <trkpt lat="45.53037" lon="4.38311">
        <ele>710</ele>
        <time>2017-11-12T09:03:32.007Z</time>
      </trkpt>
      <trkpt lat="45.5305" lon="4.38305">
        <ele>710</ele>
        <time>2017-11-12T09:03:35.007Z</time>
      </trkpt>
      <trkpt lat="45.53063" lon="4.38299">
        <ele>706</ele>
        <time>2017-11-12T09:03:38.007Z</time>
      </trkpt>
      <trkpt lat="45.53073" lon="4.38295">
        <ele>704.8460032</ele>
        <time>2017-11-12T09:03:41.007Z</time>
      </trkpt>
      <trkpt lat="45.53084" lon="4.38291">
        <ele>700</ele>
        <time>2017-11-12T09:03:44.007Z</time>
      </trkpt>
      <trkpt lat="45.53094" lon="4.38287">
        <ele>698</ele>
        <time>2017-11-12T09:03:47.007Z</time>
      </trkpt>
      <trkpt lat="45.53104" lon="4.38283">
        <ele>695.4230016</ele>
        <time>2017-11-12T09:03:50.007Z</time>
      </trkpt>
      <trkpt lat="45.53116" lon="4.38279">
        <ele>694.4230016</ele>
        <time>2017-11-12T09:03:53.007Z</time>
      </trkpt>
      <trkpt lat="45.53127" lon="4.38276">
        <ele>691</ele>
        <time>2017-11-12T09:03:56.007Z</time>
      </trkpt>
      <trkpt lat="45.53139" lon="4.38271">
        <ele>689.8460032</ele>
        <time>2017-11-12T09:03:59.007Z</time>
      </trkpt>
      <trkpt lat="45.53149" lon="4.38267">
        <ele>687.4230016</ele>
        <time>2017-11-12T09:04:02.007Z</time>
      </trkpt>
      <trkpt lat="45.53159" lon="4.38262">
        <ele>686</ele>
        <time>2017-11-12T09:04:05.007Z</time>
      </trkpt>
      <trkpt lat="45.53171" lon="4.38254">
        <ele>684.42871264543</ele>
        <time>2017-11-12T09:04:09.007Z</time>
      </trkpt>
      <trkpt lat="45.53181" lon="4.38247">
        <ele>682</ele>
        <time>2017-11-12T09:04:12.007Z</time>
      </trkpt>
      <trkpt lat="45.53191" lon="4.38241">
        <ele>680.42871264543</ele>
        <time>2017-11-12T09:04:15.007Z</time>
      </trkpt>
      <trkpt lat="45.53199" lon="4.38233">
        <ele>679</ele>
        <time>2017-11-12T09:04:18.007Z</time>
      </trkpt>
      <trkpt lat="45.53207" lon="4.38225">
        <ele>678</ele>
        <time>2017-11-12T09:04:21.007Z</time>
      </trkpt>
      <trkpt lat="45.53219" lon="4.38216">
        <ele>678</ele>
        <time>2017-11-12T09:04:24.007Z</time>
      </trkpt>
      <trkpt lat="45.53231" lon="4.3822">
        <ele>678</ele>
        <time>2017-11-12T09:04:27.007Z</time>
      </trkpt>
      <trkpt lat="45.53243" lon="4.38228">
        <ele>678</ele>
        <time>2017-11-12T09:04:30.007Z</time>
      </trkpt>
      <trkpt lat="45.53254" lon="4.38227">
        <ele>678</ele>
        <time>2017-11-12T09:04:33.007Z</time>
      </trkpt>
      <trkpt lat="45.53263" lon="4.38218">
        <ele>678</ele>
        <time>2017-11-12T09:04:36.007Z</time>
      </trkpt>
      <trkpt lat="45.53272" lon="4.38204">
        <ele>678</ele>
        <time>2017-11-12T09:04:39.007Z</time>
      </trkpt>
      <trkpt lat="45.5328" lon="4.38193">
        <ele>677</ele>
        <time>2017-11-12T09:04:42.007Z</time>
      </trkpt>
      <trkpt lat="45.53288" lon="4.3818">
        <ele>677</ele>
        <time>2017-11-12T09:04:45.007Z</time>
      </trkpt>
      <trkpt lat="45.53296" lon="4.38169">
        <ele>677</ele>
        <time>2017-11-12T09:04:48.007Z</time>
      </trkpt>
      <trkpt lat="45.53304" lon="4.38159">
        <ele>677</ele>
        <time>2017-11-12T09:04:51.007Z</time>
      </trkpt>
      <trkpt lat="45.53311" lon="4.38147">
        <ele>677</ele>
        <time>2017-11-12T09:04:54.007Z</time>
      </trkpt>
      <trkpt lat="45.53319" lon="4.38135">
        <ele>677</ele>
        <time>2017-11-12T09:04:57.007Z</time>
      </trkpt>
      <trkpt lat="45.53327" lon="4.38122">
        <ele>677</ele>
        <time>2017-11-12T09:05:00.007Z</time>
      </trkpt>
      <trkpt lat="45.53336" lon="4.3811">
        <ele>675</ele>
        <time>2017-11-12T09:05:03.007Z</time>
      </trkpt>
      <trkpt lat="45.53347" lon="4.38101">
        <ele>675</ele>
        <time>2017-11-12T09:05:06.007Z</time>
      </trkpt>
      <trkpt lat="45.53358" lon="4.38095">
        <ele>675</ele>
        <time>2017-11-12T09:05:09.007Z</time>
      </trkpt>
      <trkpt lat="45.53369" lon="4.38092">
        <ele>676</ele>
        <time>2017-11-12T09:05:12.007Z</time>
      </trkpt>
      <trkpt lat="45.5338" lon="4.38086">
        <ele>676</ele>
        <time>2017-11-12T09:05:15.007Z</time>
      </trkpt>
      <trkpt lat="45.53392" lon="4.38081">
        <ele>676</ele>
        <time>2017-11-12T09:05:18.007Z</time>
      </trkpt>
      <trkpt lat="45.53404" lon="4.38075">
        <ele>676.57171072622</ele>
        <time>2017-11-12T09:05:21.007Z</time>
      </trkpt>
      <trkpt lat="45.53415" lon="4.3807">
        <ele>677</ele>
        <time>2017-11-12T09:05:24.007Z</time>
      </trkpt>
      <trkpt lat="45.53425" lon="4.38066">
        <ele>677</ele>
        <time>2017-11-12T09:05:27.007Z</time>
      </trkpt>
      <trkpt lat="45.53437" lon="4.38063">
        <ele>677</ele>
        <time>2017-11-12T09:05:31.007Z</time>
      </trkpt>
      <trkpt lat="45.53446" lon="4.38055">
        <ele>677</ele>
        <time>2017-11-12T09:05:34.007Z</time>
      </trkpt>
      <trkpt lat="45.5345" lon="4.38037">
        <ele>677</ele>
        <time>2017-11-12T09:05:38.007Z</time>
      </trkpt>
      <trkpt lat="45.53449" lon="4.38022">
        <ele>676.4230016</ele>
        <time>2017-11-12T09:05:41.007Z</time>
      </trkpt>
      <trkpt lat="45.5345" lon="4.38004">
        <ele>676</ele>
        <time>2017-11-12T09:05:44.007Z</time>
      </trkpt>
      <trkpt lat="45.53451" lon="4.37989">
        <ele>676</ele>
        <time>2017-11-12T09:05:47.007Z</time>
      </trkpt>
      <trkpt lat="45.53441" lon="4.37981">
        <ele>672</ele>
        <time>2017-11-12T09:05:52.007Z</time>
      </trkpt>
      <trkpt lat="45.53429" lon="4.37977">
        <ele>672</ele>
        <time>2017-11-12T09:05:55.007Z</time>
      </trkpt>
      <trkpt lat="45.53418" lon="4.37979">
        <ele>669</ele>
        <time>2017-11-12T09:05:58.007Z</time>
      </trkpt>
      <trkpt lat="45.5341" lon="4.3799">
        <ele>668.4230016</ele>
        <time>2017-11-12T09:06:01.007Z</time>
      </trkpt>
      <trkpt lat="45.534" lon="4.38">
        <ele>668</ele>
        <time>2017-11-12T09:06:04.007Z</time>
      </trkpt>
      <trkpt lat="45.5339" lon="4.38005">
        <ele>668</ele>
        <time>2017-11-12T09:06:07.007Z</time>
      </trkpt>
      <trkpt lat="45.5338" lon="4.38009">
        <ele>668</ele>
        <time>2017-11-12T09:06:10.007Z</time>
      </trkpt>
      <trkpt lat="45.5337" lon="4.38015">
        <ele>667</ele>
        <time>2017-11-12T09:06:13.007Z</time>
      </trkpt>
      <trkpt lat="45.53361" lon="4.38021">
        <ele>667</ele>
        <time>2017-11-12T09:06:16.007Z</time>
      </trkpt>
      <trkpt lat="45.5335" lon="4.38028">
        <ele>667</ele>
        <time>2017-11-12T09:06:19.007Z</time>
      </trkpt>
      <trkpt lat="45.5334" lon="4.38034">
        <ele>666</ele>
        <time>2017-11-12T09:06:22.007Z</time>
      </trkpt>
      <trkpt lat="45.53328" lon="4.38038">
        <ele>666</ele>
        <time>2017-11-12T09:06:25.007Z</time>
      </trkpt>
      <trkpt lat="45.53316" lon="4.38034">
        <ele>666</ele>
        <time>2017-11-12T09:06:28.007Z</time>
      </trkpt>
      <trkpt lat="45.53307" lon="4.38022">
        <ele>666</ele>
        <time>2017-11-12T09:06:31.007Z</time>
      </trkpt>
      <trkpt lat="45.53304" lon="4.38005">
        <ele>666</ele>
        <time>2017-11-12T09:06:34.007Z</time>
      </trkpt>
      <trkpt lat="45.5331" lon="4.37988">
        <ele>666</ele>
        <time>2017-11-12T09:06:37.007Z</time>
      </trkpt>
      <trkpt lat="45.53319" lon="4.37974">
        <ele>666</ele>
        <time>2017-11-12T09:06:40.007Z</time>
      </trkpt>
      <trkpt lat="45.53328" lon="4.37963">
        <ele>666</ele>
        <time>2017-11-12T09:06:43.007Z</time>
      </trkpt>
      <trkpt lat="45.53335" lon="4.37953">
        <ele>666</ele>
        <time>2017-11-12T09:06:46.007Z</time>
      </trkpt>
      <trkpt lat="45.53344" lon="4.37939">
        <ele>666</ele>
        <time>2017-11-12T09:06:50.007Z</time>
      </trkpt>
      <trkpt lat="45.53351" lon="4.37927">
        <ele>665</ele>
        <time>2017-11-12T09:06:53.007Z</time>
      </trkpt>
      <trkpt lat="45.53358" lon="4.37916">
        <ele>665</ele>
        <time>2017-11-12T09:06:56.007Z</time>
      </trkpt>
      <trkpt lat="45.53363" lon="4.37902">
        <ele>665</ele>
        <time>2017-11-12T09:07:00.007Z</time>
      </trkpt>
      <trkpt lat="45.53359" lon="4.37888">
        <ele>668</ele>
        <time>2017-11-12T09:07:05.007Z</time>
      </trkpt>
      <trkpt lat="45.53357" lon="4.37876">
        <ele>669</ele>
        <time>2017-11-12T09:07:09.007Z</time>
      </trkpt>
      <trkpt lat="45.53364" lon="4.37864">
        <ele>670</ele>
        <time>2017-11-12T09:07:12.007Z</time>
      </trkpt>
      <trkpt lat="45.53373" lon="4.3785">
        <ele>670</ele>
        <time>2017-11-12T09:07:15.007Z</time>
      </trkpt>
      <trkpt lat="45.53379" lon="4.37836">
        <ele>667</ele>
        <time>2017-11-12T09:07:18.007Z</time>
      </trkpt>
      <trkpt lat="45.53378" lon="4.37822">
        <ele>666</ele>
        <time>2017-11-12T09:07:23.007Z</time>
      </trkpt>
      <trkpt lat="45.5337" lon="4.37813">
        <ele>666.57128735457</ele>
        <time>2017-11-12T09:07:27.007Z</time>
      </trkpt>
      <trkpt lat="45.53363" lon="4.37798">
        <ele>668</ele>
        <time>2017-11-12T09:07:32.007Z</time>
      </trkpt>
      <trkpt lat="45.53355" lon="4.37785">
        <ele>668</ele>
        <time>2017-11-12T09:07:36.007Z</time>
      </trkpt>
      <trkpt lat="45.53352" lon="4.37768">
        <ele>668</ele>
        <time>2017-11-12T09:07:40.007Z</time>
      </trkpt>
      <trkpt lat="45.53347" lon="4.37753">
        <ele>669</ele>
        <time>2017-11-12T09:07:44.007Z</time>
      </trkpt>
      <trkpt lat="45.53344" lon="4.37739">
        <ele>669</ele>
        <time>2017-11-12T09:07:47.007Z</time>
      </trkpt>
      <trkpt lat="45.5334" lon="4.37723">
        <ele>669</ele>
        <time>2017-11-12T09:07:50.007Z</time>
      </trkpt>
      <trkpt lat="45.53339" lon="4.37706">
        <ele>668</ele>
        <time>2017-11-12T09:07:53.007Z</time>
      </trkpt>
      <trkpt lat="45.53336" lon="4.37692">
        <ele>668</ele>
        <time>2017-11-12T09:07:56.007Z</time>
      </trkpt>
      <trkpt lat="45.53331" lon="4.37678">
        <ele>668</ele>
        <time>2017-11-12T09:07:59.007Z</time>
      </trkpt>
      <trkpt lat="45.53326" lon="4.37666">
        <ele>668</ele>
        <time>2017-11-12T09:08:02.007Z</time>
      </trkpt>
      <trkpt lat="45.53321" lon="4.37653">
        <ele>668</ele>
        <time>2017-11-12T09:08:05.007Z</time>
      </trkpt>
      <trkpt lat="45.53316" lon="4.37641">
        <ele>668</ele>
        <time>2017-11-12T09:08:08.007Z</time>
      </trkpt>
      <trkpt lat="45.53312" lon="4.37627">
        <ele>668</ele>
        <time>2017-11-12T09:08:11.007Z</time>
      </trkpt>
      <trkpt lat="45.53309" lon="4.37612">
        <ele>668</ele>
        <time>2017-11-12T09:08:14.007Z</time>
      </trkpt>
      <trkpt lat="45.53305" lon="4.37598">
        <ele>668</ele>
        <time>2017-11-12T09:08:17.007Z</time>
      </trkpt>
      <trkpt lat="45.53302" lon="4.37585">
        <ele>668</ele>
        <time>2017-11-12T09:08:20.007Z</time>
      </trkpt>
      <trkpt lat="45.533" lon="4.3757">
        <ele>668</ele>
        <time>2017-11-12T09:08:23.007Z</time>
      </trkpt>
      <trkpt lat="45.53299" lon="4.37556">
        <ele>668</ele>
        <time>2017-11-12T09:08:26.007Z</time>
      </trkpt>
      <trkpt lat="45.53298" lon="4.37542">
        <ele>668</ele>
        <time>2017-11-12T09:08:29.007Z</time>
      </trkpt>
      <trkpt lat="45.53294" lon="4.37526">
        <ele>667</ele>
        <time>2017-11-12T09:08:32.007Z</time>
      </trkpt>
      <trkpt lat="45.53288" lon="4.3751">
        <ele>667</ele>
        <time>2017-11-12T09:08:35.007Z</time>
      </trkpt>
      <trkpt lat="45.53283" lon="4.37493">
        <ele>667</ele>
        <time>2017-11-12T09:08:38.007Z</time>
      </trkpt>
      <trkpt lat="45.53277" lon="4.37476">
        <ele>663.5380096</ele>
        <time>2017-11-12T09:08:41.007Z</time>
      </trkpt>
      <trkpt lat="45.53274" lon="4.37459">
        <ele>657.4230016</ele>
        <time>2017-11-12T09:08:44.007Z</time>
      </trkpt>
      <trkpt lat="45.53274" lon="4.3744">
        <ele>657.5769984</ele>
        <time>2017-11-12T09:08:47.007Z</time>
      </trkpt>
      <trkpt lat="45.53275" lon="4.37423">
        <ele>658.5769984</ele>
        <time>2017-11-12T09:08:50.007Z</time>
      </trkpt>
      <trkpt lat="45.53278" lon="4.37406">
        <ele>658</ele>
        <time>2017-11-12T09:08:53.007Z</time>
      </trkpt>
      <trkpt lat="45.5328" lon="4.37391">
        <ele>657.4230016</ele>
        <time>2017-11-12T09:08:56.007Z</time>
      </trkpt>
      <trkpt lat="45.53283" lon="4.37378">
        <ele>657</ele>
        <time>2017-11-12T09:08:59.007Z</time>
      </trkpt>
      <trkpt lat="45.5328" lon="4.3736">
        <ele>656</ele>
        <time>2017-11-12T09:09:03.007Z</time>
      </trkpt>
      <trkpt lat="45.53274" lon="4.37347">
        <ele>656</ele>
        <time>2017-11-12T09:09:06.007Z</time>
      </trkpt>
      <trkpt lat="45.53268" lon="4.37335">
        <ele>656</ele>
        <time>2017-11-12T09:09:09.007Z</time>
      </trkpt>
      <trkpt lat="45.53261" lon="4.37323">
        <ele>656</ele>
        <time>2017-11-12T09:09:12.007Z</time>
      </trkpt>
      <trkpt lat="45.53255" lon="4.3731">
        <ele>656</ele>
        <time>2017-11-12T09:09:15.007Z</time>
      </trkpt>
      <trkpt lat="45.53246" lon="4.37297">
        <ele>656</ele>
        <time>2017-11-12T09:09:18.007Z</time>
      </trkpt>
      <trkpt lat="45.53238" lon="4.37284">
        <ele>656</ele>
        <time>2017-11-12T09:09:21.007Z</time>
      </trkpt>
      <trkpt lat="45.5323" lon="4.37271">
        <ele>656</ele>
        <time>2017-11-12T09:09:24.007Z</time>
      </trkpt>
      <trkpt lat="45.53224" lon="4.37259">
        <ele>656</ele>
        <time>2017-11-12T09:09:27.007Z</time>
      </trkpt>
      <trkpt lat="45.53216" lon="4.37248">
        <ele>656</ele>
        <time>2017-11-12T09:09:30.007Z</time>
      </trkpt>
      <trkpt lat="45.53207" lon="4.37238">
        <ele>655</ele>
        <time>2017-11-12T09:09:33.007Z</time>
      </trkpt>
      <trkpt lat="45.53198" lon="4.37229">
        <ele>655</ele>
        <time>2017-11-12T09:09:36.007Z</time>
      </trkpt>
      <trkpt lat="45.53189" lon="4.37221">
        <ele>655</ele>
        <time>2017-11-12T09:09:39.007Z</time>
      </trkpt>
      <trkpt lat="45.53178" lon="4.37213">
        <ele>655</ele>
        <time>2017-11-12T09:09:43.007Z</time>
      </trkpt>
      <trkpt lat="45.53167" lon="4.37206">
        <ele>655</ele>
        <time>2017-11-12T09:09:47.007Z</time>
      </trkpt>
      <trkpt lat="45.53155" lon="4.372">
        <ele>655.5670016</ele>
        <time>2017-11-12T09:09:51.007Z</time>
      </trkpt>
      <trkpt lat="45.53144" lon="4.37193">
        <ele>656</ele>
        <time>2017-11-12T09:09:55.007Z</time>
      </trkpt>
      <trkpt lat="45.53133" lon="4.37184">
        <ele>656</ele>
        <time>2017-11-12T09:09:59.007Z</time>
      </trkpt>
      <trkpt lat="45.53122" lon="4.37178">
        <ele>659</ele>
        <time>2017-11-12T09:10:03.007Z</time>
      </trkpt>
      <trkpt lat="45.53111" lon="4.37178">
        <ele>661</ele>
        <time>2017-11-12T09:10:07.007Z</time>
      </trkpt>
      <trkpt lat="45.53103" lon="4.37179">
        <ele>661</ele>
        <time>2017-11-12T09:10:10.007Z</time>
      </trkpt>
      <trkpt lat="45.53095" lon="4.37179">
        <ele>661</ele>
        <time>2017-11-12T09:10:13.007Z</time>
      </trkpt>
      <trkpt lat="45.53086" lon="4.3718">
        <ele>661</ele>
        <time>2017-11-12T09:10:16.007Z</time>
      </trkpt>
      <trkpt lat="45.53076" lon="4.3718">
        <ele>661</ele>
        <time>2017-11-12T09:10:19.007Z</time>
      </trkpt>
      <trkpt lat="45.53064" lon="4.37181">
        <ele>661</ele>
        <time>2017-11-12T09:10:22.007Z</time>
      </trkpt>
      <trkpt lat="45.5305" lon="4.37182">
        <ele>661</ele>
        <time>2017-11-12T09:10:26.007Z</time>
      </trkpt>
      <trkpt lat="45.53038" lon="4.3718">
        <ele>661</ele>
        <time>2017-11-12T09:10:30.007Z</time>
      </trkpt>
      <trkpt lat="45.53029" lon="4.37173">
        <ele>660</ele>
        <time>2017-11-12T09:10:33.007Z</time>
      </trkpt>
      <trkpt lat="45.53019" lon="4.37165">
        <ele>660</ele>
        <time>2017-11-12T09:10:36.007Z</time>
      </trkpt>
      <trkpt lat="45.53009" lon="4.37157">
        <ele>660</ele>
        <time>2017-11-12T09:10:39.007Z</time>
      </trkpt>
      <trkpt lat="45.52998" lon="4.37153">
        <ele>659</ele>
        <time>2017-11-12T09:10:42.007Z</time>
      </trkpt>
      <trkpt lat="45.52988" lon="4.37151">
        <ele>659</ele>
        <time>2017-11-12T09:10:45.007Z</time>
      </trkpt>
      <trkpt lat="45.52978" lon="4.37151">
        <ele>659</ele>
        <time>2017-11-12T09:10:48.007Z</time>
      </trkpt>
      <trkpt lat="45.52965" lon="4.37154">
        <ele>660</ele>
        <time>2017-11-12T09:10:52.007Z</time>
      </trkpt>
      <trkpt lat="45.52952" lon="4.37159">
        <ele>660</ele>
        <time>2017-11-12T09:10:56.007Z</time>
      </trkpt>
      <trkpt lat="45.52941" lon="4.37159">
        <ele>660</ele>
        <time>2017-11-12T09:10:59.007Z</time>
      </trkpt>
      <trkpt lat="45.52931" lon="4.37152">
        <ele>660</ele>
        <time>2017-11-12T09:11:02.007Z</time>
      </trkpt>
      <trkpt lat="45.52924" lon="4.37142">
        <ele>660</ele>
        <time>2017-11-12T09:11:05.007Z</time>
      </trkpt>
      <trkpt lat="45.52917" lon="4.37128">
        <ele>660</ele>
        <time>2017-11-12T09:11:08.007Z</time>
      </trkpt>
      <trkpt lat="45.52912" lon="4.37119">
        <ele>659</ele>
        <time>2017-11-12T09:11:10.007Z</time>
      </trkpt>
      <trkpt lat="45.52904" lon="4.37108">
        <ele>658</ele>
        <time>2017-11-12T09:11:13.007Z</time>
      </trkpt>
      <trkpt lat="45.52893" lon="4.37103">
        <ele>658</ele>
        <time>2017-11-12T09:11:16.007Z</time>
      </trkpt>
      <trkpt lat="45.52882" lon="4.37103">
        <ele>658</ele>
        <time>2017-11-12T09:11:19.007Z</time>
      </trkpt>
      <trkpt lat="45.5287" lon="4.37101">
        <ele>654</ele>
        <time>2017-11-12T09:11:22.007Z</time>
      </trkpt>
      <trkpt lat="45.52861" lon="4.37095">
        <ele>654</ele>
        <time>2017-11-12T09:11:24.007Z</time>
      </trkpt>
      <trkpt lat="45.52849" lon="4.37084">
        <ele>650</ele>
        <time>2017-11-12T09:11:27.007Z</time>
      </trkpt>
      <trkpt lat="45.5284" lon="4.37069">
        <ele>650</ele>
        <time>2017-11-12T09:11:30.007Z</time>
      </trkpt>
      <trkpt lat="45.52836" lon="4.37056">
        <ele>645</ele>
        <time>2017-11-12T09:11:32.007Z</time>
      </trkpt>
      <trkpt lat="45.52832" lon="4.37043">
        <ele>644</ele>
        <time>2017-11-12T09:11:34.007Z</time>
      </trkpt>
      <trkpt lat="45.52829" lon="4.37029">
        <ele>641.4230016</ele>
        <time>2017-11-12T09:11:36.007Z</time>
      </trkpt>
      <trkpt lat="45.52827" lon="4.37016">
        <ele>640.4230016</ele>
        <time>2017-11-12T09:11:38.007Z</time>
      </trkpt>
      <trkpt lat="45.52824" lon="4.37003">
        <ele>640</ele>
        <time>2017-11-12T09:11:40.007Z</time>
      </trkpt>
      <trkpt lat="45.5282" lon="4.36991">
        <ele>639</ele>
        <time>2017-11-12T09:11:42.007Z</time>
      </trkpt>
      <trkpt lat="45.52816" lon="4.36979">
        <ele>637.4230016</ele>
        <time>2017-11-12T09:11:44.007Z</time>
      </trkpt>
      <trkpt lat="45.52809" lon="4.36963">
        <ele>635</ele>
        <time>2017-11-12T09:11:47.007Z</time>
      </trkpt>
      <trkpt lat="45.52804" lon="4.36947">
        <ele>633.8460032</ele>
        <time>2017-11-12T09:11:50.007Z</time>
      </trkpt>
      <trkpt lat="45.52799" lon="4.3693">
        <ele>633</ele>
        <time>2017-11-12T09:11:53.007Z</time>
      </trkpt>
      <trkpt lat="45.52794" lon="4.36913">
        <ele>630.8545459247</ele>
        <time>2017-11-12T09:11:56.007Z</time>
      </trkpt>
      <trkpt lat="45.52791" lon="4.36901">
        <ele>630.42727296235</ele>
        <time>2017-11-12T09:11:58.007Z</time>
      </trkpt>
      <trkpt lat="45.52789" lon="4.3689">
        <ele>630.5769984</ele>
        <time>2017-11-12T09:12:00.007Z</time>
      </trkpt>
      <trkpt lat="45.52782" lon="4.36878">
        <ele>629.42871264543</ele>
        <time>2017-11-12T09:12:03.007Z</time>
      </trkpt>
      <trkpt lat="45.5277" lon="4.36873">
        <ele>630.1539968</ele>
        <time>2017-11-12T09:12:07.007Z</time>
      </trkpt>
      <trkpt lat="45.5276" lon="4.3687">
        <ele>634</ele>
        <time>2017-11-12T09:12:12.007Z</time>
      </trkpt>
      <trkpt lat="45.52752" lon="4.3688">
        <ele>635.4230016</ele>
        <time>2017-11-12T09:12:18.007Z</time>
      </trkpt>
      <trkpt lat="45.52751" lon="4.36895">
        <ele>635</ele>
        <time>2017-11-12T09:12:22.007Z</time>
      </trkpt>
      <trkpt lat="45.52747" lon="4.36912">
        <ele>635</ele>
        <time>2017-11-12T09:12:26.007Z</time>
      </trkpt>
      <trkpt lat="45.52743" lon="4.36928">
        <ele>635</ele>
        <time>2017-11-12T09:12:30.007Z</time>
      </trkpt>
      <trkpt lat="45.52741" lon="4.36944">
        <ele>638</ele>
        <time>2017-11-12T09:12:34.007Z</time>
      </trkpt>
      <trkpt lat="45.52738" lon="4.3696">
        <ele>639</ele>
        <time>2017-11-12T09:12:38.007Z</time>
      </trkpt>
      <trkpt lat="45.52736" lon="4.36977">
        <ele>641</ele>
        <time>2017-11-12T09:12:42.007Z</time>
      </trkpt>
      <trkpt lat="45.52735" lon="4.36996">
        <ele>640.4230016</ele>
        <time>2017-11-12T09:12:46.007Z</time>
      </trkpt>
      <trkpt lat="45.52734" lon="4.3701">
        <ele>640</ele>
        <time>2017-11-12T09:12:49.007Z</time>
      </trkpt>
      <trkpt lat="45.52734" lon="4.37029">
        <ele>640</ele>
        <time>2017-11-12T09:12:53.007Z</time>
      </trkpt>
      <trkpt lat="45.52736" lon="4.37046">
        <ele>640</ele>
        <time>2017-11-12T09:12:57.007Z</time>
      </trkpt>
      <trkpt lat="45.52734" lon="4.37061">
        <ele>642.3079936</ele>
        <time>2017-11-12T09:13:01.007Z</time>
      </trkpt>
      <trkpt lat="45.52729" lon="4.37074">
        <ele>644</ele>
        <time>2017-11-12T09:13:05.007Z</time>
      </trkpt>
      <trkpt lat="45.52719" lon="4.37084">
        <ele>646</ele>
        <time>2017-11-12T09:13:09.007Z</time>
      </trkpt>
      <trkpt lat="45.52708" lon="4.37093">
        <ele>646</ele>
        <time>2017-11-12T09:13:13.007Z</time>
      </trkpt>
      <trkpt lat="45.52698" lon="4.371">
        <ele>646</ele>
        <time>2017-11-12T09:13:17.007Z</time>
      </trkpt>
      <trkpt lat="45.52689" lon="4.37106">
        <ele>647.14257470915</ele>
        <time>2017-11-12T09:13:21.007Z</time>
      </trkpt>
      <trkpt lat="45.52678" lon="4.37115">
        <ele>648</ele>
        <time>2017-11-12T09:13:25.007Z</time>
      </trkpt>
      <trkpt lat="45.52668" lon="4.37123">
        <ele>648</ele>
        <time>2017-11-12T09:13:29.007Z</time>
      </trkpt>
      <trkpt lat="45.52657" lon="4.3713">
        <ele>649</ele>
        <time>2017-11-12T09:13:33.007Z</time>
      </trkpt>
      <trkpt lat="45.52646" lon="4.37136">
        <ele>649</ele>
        <time>2017-11-12T09:13:38.007Z</time>
      </trkpt>
      <trkpt lat="45.52635" lon="4.3714">
        <ele>652</ele>
        <time>2017-11-12T09:13:42.007Z</time>
      </trkpt>
      <trkpt lat="45.52625" lon="4.37144">
        <ele>653.7309952</ele>
        <time>2017-11-12T09:13:46.007Z</time>
      </trkpt>
      <trkpt lat="45.52614" lon="4.37149">
        <ele>655</ele>
        <time>2017-11-12T09:13:50.007Z</time>
      </trkpt>
      <trkpt lat="45.52606" lon="4.37158">
        <ele>657.3079936</ele>
        <time>2017-11-12T09:13:56.007Z</time>
      </trkpt>
      <trkpt lat="45.52603" lon="4.3717">
        <ele>663.42871264543</ele>
        <time>2017-11-12T09:14:03.007Z</time>
      </trkpt>
      <trkpt lat="45.526" lon="4.37182">
        <ele>663</ele>
        <time>2017-11-12T09:14:07.007Z</time>
      </trkpt>
      <trkpt lat="45.52594" lon="4.37194">
        <ele>665</ele>
        <time>2017-11-12T09:14:12.007Z</time>
      </trkpt>
      <trkpt lat="45.52587" lon="4.37206">
        <ele>667</ele>
        <time>2017-11-12T09:14:17.007Z</time>
      </trkpt>
      <trkpt lat="45.5258" lon="4.37215">
        <ele>670</ele>
        <time>2017-11-12T09:14:22.007Z</time>
      </trkpt>
      <trkpt lat="45.52569" lon="4.37214">
        <ele>670</ele>
        <time>2017-11-12T09:14:26.007Z</time>
      </trkpt>
      <trkpt lat="45.52557" lon="4.37208">
        <ele>670</ele>
        <time>2017-11-12T09:14:30.007Z</time>
      </trkpt>
      <trkpt lat="45.52545" lon="4.37201">
        <ele>669</ele>
        <time>2017-11-12T09:14:34.007Z</time>
      </trkpt>
      <trkpt lat="45.52535" lon="4.37194">
        <ele>669</ele>
        <time>2017-11-12T09:14:37.007Z</time>
      </trkpt>
      <trkpt lat="45.52526" lon="4.37187">
        <ele>670.1539968</ele>
        <time>2017-11-12T09:14:41.007Z</time>
      </trkpt>
      <trkpt lat="45.52515" lon="4.3718">
        <ele>671</ele>
        <time>2017-11-12T09:14:45.007Z</time>
      </trkpt>
      <trkpt lat="45.52504" lon="4.37173">
        <ele>671</ele>
        <time>2017-11-12T09:14:48.007Z</time>
      </trkpt>
      <trkpt lat="45.52494" lon="4.37162">
        <ele>672</ele>
        <time>2017-11-12T09:14:52.007Z</time>
      </trkpt>
      <trkpt lat="45.52485" lon="4.3717">
        <ele>672</ele>
        <time>2017-11-12T09:14:59.007Z</time>
      </trkpt>
      <trkpt lat="45.52488" lon="4.37189">
        <ele>673</ele>
        <time>2017-11-12T09:15:02.007Z</time>
      </trkpt>
      <trkpt lat="45.5249" lon="4.37203">
        <ele>673</ele>
        <time>2017-11-12T09:15:05.007Z</time>
      </trkpt>
    </trkseg>
  </trk>
</gpx>